Wetterdaten: Freitag, 19.02.2021
Datum Zeit Temp. Aussen Temp. o. S. Temp +5cm Feuchte Auss Luftdruck Regen Sonnenschein Regendauer Solar Windben Empfang
19.02.2021 00:00 6,4 C 5,6 C 4,5 C 92 % 1012,8 hPa 0,0 l/m 0 min 0 min 0 W/m 0,0 km/h (0 Bft) 97,87 %
19.02.2021 00:02 6,4 C 5,6 C 4,5 C 92 % 1012,9 hPa 0,0 l/m 0 min 0 min 0 W/m 0,0 km/h (0 Bft) 5,56 %
19.02.2021 00:04 6,4 C 5,6 C 4,5 C 92 % 1013,0 hPa 0,0 l/m 0 min 0 min 0 W/m 0,0 km/h (0 Bft) 90,91 %
19.02.2021 00:08 6,3 C 5,6 C 4,5 C 92 % 1013,0 hPa 0,0 l/m 0 min 0 min 0 W/m 3,2 km/h (1 Bft) 97,89 %
19.02.2021 00:10 6,3 C 5,6 C 4,5 C 92 % 1013,0 hPa 0,0 l/m 0 min 0 min 0 W/m 0,0 km/h (0 Bft) 95,74 %
19.02.2021 00:12 6,2 C 5,6 C 4,5 C 92 % 1013,1 hPa 0,0 l/m 0 min 0 min 0 W/m 0,0 km/h (0 Bft) 97,83 %
19.02.2021 00:14 6,2 C 5,6 C 4,5 C 92 % 1013,1 hPa 0,0 l/m 0 min 0 min 0 W/m 0,0 km/h (0 Bft) 95,74 %
19.02.2021 00:16 6,2 C 5,6 C 4,5 C 92 % 1013,1 hPa 0,0 l/m 0 min 0 min 0 W/m 0,0 km/h (0 Bft) 95,74 %
19.02.2021 00:18 6,1 C 5,6 C 4,5 C 92 % 1013,1 hPa 0,0 l/m 0 min 0 min 0 W/m 0,0 km/h (0 Bft) 97,87 %
19.02.2021 00:20 6,1 C 5,6 C 4,5 C 92 % 1013,1 hPa 0,0 l/m 0 min 0 min 0 W/m 0,0 km/h (0 Bft) 97,87 %
19.02.2021 00:22 6,1 C 5,6 C 4,5 C 92 % 1013,1 hPa 0,0 l/m 0 min 0 min 0 W/m 0,0 km/h (0 Bft) 95,74 %
19.02.2021 00:24 6,1 C 5,6 C 4,5 C 92 % 1013,2 hPa 0,0 l/m 0 min 0 min 0 W/m 0,0 km/h (0 Bft) 97,83 %
19.02.2021 00:26 6,1 C 5,6 C 4,5 C 92 % 1013,3 hPa 0,0 l/m 0 min 0 min 0 W/m 0,0 km/h (0 Bft) 95,74 %
19.02.2021 00:28 6,0 C 5,0 C 4,5 C 92 % 1013,3 hPa 0,0 l/m 0 min 0 min 0 W/m 0,0 km/h (0 Bft) 95,74 %
19.02.2021 00:30 6,0 C 5,6 C 4,5 C 92 % 1013,3 hPa 0,0 l/m 0 min 0 min 0 W/m 0,0 km/h (0 Bft) 97,87 %
19.02.2021 00:32 6,0 C 5,0 C 4,5 C 92 % 1013,3 hPa 0,0 l/m 0 min 0 min 0 W/m 0,0 km/h (0 Bft) 95,74 %
19.02.2021 00:34 6,0 C 5,0 C 3,9 C 92 % 1013,4 hPa 0,0 l/m 0 min 0 min 0 W/m 0,0 km/h (0 Bft) 91,30 %
19.02.2021 00:36 6,0 C 5,0 C 3,9 C 92 % 1013,4 hPa 0,0 l/m 0 min 0 min 0 W/m 0,0 km/h (0 Bft) 97,87 %
19.02.2021 00:38 5,9 C 5,0 C 3,9 C 92 % 1013,5 hPa 0,0 l/m 0 min 0 min 0 W/m 0,0 km/h (0 Bft) 80,85 %
19.02.2021 00:40 5,9 C 5,0 C 3,9 C 92 % 1013,5 hPa 0,0 l/m 0 min 0 min 0 W/m 0,0 km/h (0 Bft) 69,57 %
19.02.2021 00:42 5,9 C 5,0 C 4,5 C 92 % 1013,5 hPa 0,0 l/m 0 min 0 min 0 W/m 0,0 km/h (0 Bft) 97,87 %
19.02.2021 00:44 5,9 C 5,0 C 3,9 C 92 % 1013,5 hPa 0,0 l/m 0 min 0 min 0 W/m 0,0 km/h (0 Bft) 93,62 %
19.02.2021 00:46 5,9 C 5,0 C 3,9 C 92 % 1013,6 hPa 0,0 l/m 0 min 0 min 0 W/m 0,0 km/h (0 Bft) 95,74 %
19.02.2021 00:48 5,9 C 5,0 C 3,9 C 92 % 1013,5 hPa 0,0 l/m 0 min 0 min 0 W/m 0,0 km/h (0 Bft) 97,83 %
19.02.2021 00:50 5,8 C 5,0 C 3,9 C 92 % 1013,6 hPa 0,0 l/m 0 min 0 min 0 W/m 0,0 km/h (0 Bft) 97,87 %
19.02.2021 00:52 5,8 C 5,0 C 3,9 C 93 % 1013,6 hPa 0,0 l/m 0 min 0 min 0 W/m 3,2 km/h (1 Bft) 94,00 %
19.02.2021 00:54 5,8 C 5,0 C 3,9 C 93 % 1013,7 hPa 0,0 l/m 0 min 0 min 0 W/m 0,0 km/h (0 Bft) 97,87 %
19.02.2021 00:56 5,8 C 5,0 C 3,9 C 93 % 1013,8 hPa 0,0 l/m 0 min 0 min 0 W/m 0,0 km/h (0 Bft) 100,00 %
19.02.2021 00:58 5,8 C 5,0 C 3,9 C 93 % 1013,7 hPa 0,0 l/m 0 min 0 min 0 W/m 3,2 km/h (1 Bft) 93,48 %
19.02.2021 01:00 5,8 C 5,0 C 3,9 C 93 % 1013,8 hPa 0,0 l/m 0 min 0 min 0 W/m 0,0 km/h (0 Bft) 93,62 %
19.02.2021 01:02 5,8 C 5,0 C 3,9 C 93 % 1013,8 hPa 0,0 l/m 0 min 0 min 0 W/m 0,0 km/h (0 Bft) 91,67 %
19.02.2021 01:04 5,8 C 5,0 C 3,9 C 93 % 1013,9 hPa 0,0 l/m 0 min 0 min 0 W/m 0,0 km/h (0 Bft) 93,62 %
19.02.2021 01:06 5,7 C 5,0 C 3,9 C 93 % 1013,9 hPa 0,0 l/m 0 min 0 min 0 W/m 0,0 km/h (0 Bft) 93,62 %
19.02.2021 01:08 5,7 C 5,0 C 3,9 C 93 % 1014,0 hPa 0,0 l/m 0 min 0 min 0 W/m 0,0 km/h (0 Bft) 95,74 %
19.02.2021 01:10 5,7 C 5,0 C 3,9 C 93 % 1013,9 hPa 0,0 l/m 0 min 0 min 0 W/m 3,2 km/h (1 Bft) 95,65 %
19.02.2021 01:12 5,7 C 5,0 C 3,9 C 93 % 1013,9 hPa 0,0 l/m 0 min 0 min 0 W/m 0,0 km/h (0 Bft) 91,49 %
19.02.2021 01:14 5,7 C 5,0 C 3,9 C 93 % 1014,0 hPa 0,0 l/m 0 min 0 min 0 W/m 0,0 km/h (0 Bft) 93,62 %
19.02.2021 01:16 5,7 C 5,0 C 3,9 C 93 % 1014,0 hPa 0,0 l/m 0 min 0 min 0 W/m 0,0 km/h (0 Bft) 95,74 %
19.02.2021 01:18 5,7 C 5,0 C 3,9 C 93 % 1014,0 hPa 0,0 l/m 0 min 0 min 0 W/m 0,0 km/h (0 Bft) 95,74 %
19.02.2021 01:20 5,7 C 5,0 C 3,9 C 93 % 1014,0 hPa 0,0 l/m 0 min 0 min 0 W/m 0,0 km/h (0 Bft) 95,74 %
19.02.2021 01:22 5,7 C 5,0 C 3,9 C 93 % 1014,0 hPa 0,0 l/m 0 min 0 min 0 W/m 6,4 km/h (2 Bft) 93,48 %
19.02.2021 01:24 5,7 C 5,0 C 3,9 C 93 % 1014,1 hPa 0,0 l/m 0 min 0 min 0 W/m 0,0 km/h (0 Bft) 91,49 %
19.02.2021 01:26 5,6 C 5,0 C 3,9 C 93 % 1014,1 hPa 0,0 l/m 0 min 0 min 0 W/m 0,0 km/h (0 Bft) 93,62 %
19.02.2021 01:28 5,6 C 5,0 C 3,9 C 93 % 1014,1 hPa 0,0 l/m 0 min 0 min 0 W/m 0,0 km/h (0 Bft) 93,62 %
19.02.2021 01:30 5,6 C 5,0 C 3,9 C 93 % 1014,1 hPa 0,0 l/m 0 min 0 min 0 W/m 3,2 km/h (1 Bft) 91,49 %
19.02.2021 01:32 5,6 C 5,0 C 3,9 C 93 % 1014,2 hPa 0,0 l/m 0 min 0 min 0 W/m 0,0 km/h (0 Bft) 93,62 %
19.02.2021 01:34 5,6 C 5,0 C 3,9 C 93 % 1014,2 hPa 0,0 l/m 0 min 0 min 0 W/m 3,2 km/h (1 Bft) 91,30 %
19.02.2021 01:36 5,6 C 5,0 C 3,9 C 93 % 1014,2 hPa 0,0 l/m 0 min 0 min 0 W/m 0,0 km/h (0 Bft) 91,49 %
19.02.2021 01:38 5,6 C 5,0 C 3,9 C 93 % 1014,2 hPa 0,0 l/m 0 min 0 min 0 W/m 0,0 km/h (0 Bft) 93,62 %
19.02.2021 01:40 5,6 C 5,0 C 3,9 C 93 % 1014,1 hPa 0,0 l/m 0 min 0 min 0 W/m 0,0 km/h (0 Bft) 95,74 %
19.02.2021 01:42 5,6 C 5,0 C 3,9 C 93 % 1014,2 hPa 0,0 l/m 0 min 0 min 0 W/m 0,0 km/h (0 Bft) 93,62 %
19.02.2021 01:44 5,6 C 5,0 C 3,9 C 93 % 1014,3 hPa 0,0 l/m 0 min 0 min 0 W/m 16,1 km/h (3 Bft) 95,74 %
19.02.2021 01:46 5,6 C 5,0 C 3,9 C 93 % 1014,3 hPa 0,0 l/m 0 min 0 min 0 W/m 0,0 km/h (0 Bft) 93,48 %
19.02.2021 01:48 5,5 C 5,0 C 3,9 C 93 % 1014,3 hPa 0,0 l/m 0 min 0 min 0 W/m 0,0 km/h (0 Bft) 93,62 %
19.02.2021 01:50 5,5 C 5,0 C 3,9 C 93 % 1014,3 hPa 0,0 l/m 0 min 0 min 0 W/m 0,0 km/h (0 Bft) 89,58 %
19.02.2021 01:52 5,5 C 5,0 C 3,9 C 93 % 1014,3 hPa 0,0 l/m 0 min 0 min 0 W/m 0,0 km/h (0 Bft) 97,14 %
19.02.2021 01:54 5,5 C 5,0 C 3,9 C 93 % 1014,4 hPa 0,0 l/m 0 min 0 min 0 W/m 0,0 km/h (0 Bft) 94,83 %
19.02.2021 01:56 5,5 C 5,0 C 3,9 C 93 % 1014,3 hPa 0,0 l/m 0 min 0 min 0 W/m 0,0 km/h (0 Bft) 95,74 %
19.02.2021 01:58 5,5 C 5,0 C 3,9 C 93 % 1014,4 hPa 0,0 l/m 0 min 0 min 0 W/m 0,0 km/h (0 Bft) 97,14 %
19.02.2021 02:00 5,5 C 5,0 C 3,9 C 93 % 1014,4 hPa 0,0 l/m 0 min 0 min 0 W/m 0,0 km/h (0 Bft) 95,74 %
19.02.2021 02:02 5,5 C 5,0 C 3,9 C 93 % 1014,5 hPa 0,0 l/m 0 min 0 min 0 W/m 0,0 km/h (0 Bft) 94,92 %
19.02.2021 02:04 5,5 C 5,0 C 3,9 C 93 % 1014,5 hPa 0,0 l/m 0 min 0 min 0 W/m 3,2 km/h (1 Bft) 91,30 %
19.02.2021 02:06 5,5 C 5,0 C 3,9 C 93 % 1014,5 hPa 0,0 l/m 0 min 0 min 0 W/m 0,0 km/h (0 Bft) 95,74 %
19.02.2021 02:08 5,5 C 5,0 C 3,9 C 93 % 1014,5 hPa 0,0 l/m 0 min 0 min 0 W/m 0,0 km/h (0 Bft) 93,62 %
19.02.2021 02:10 5,5 C 5,0 C 3,9 C 93 % 1014,5 hPa 0,0 l/m 0 min 0 min 0 W/m 0,0 km/h (0 Bft) 95,74 %
19.02.2021 02:12 5,5 C 5,0 C 3,9 C 93 % 1014,6 hPa 0,0 l/m 0 min 0 min 0 W/m 0,0 km/h (0 Bft) 100,00 %
19.02.2021 02:14 5,4 C 5,0 C 3,9 C 93 % 1014,6 hPa 0,0 l/m 0 min 0 min 0 W/m 0,0 km/h (0 Bft) 100,00 %
19.02.2021 02:16 5,5 C 5,0 C 3,9 C 93 % 1014,6 hPa 0,0 l/m 0 min 0 min 0 W/m 0,0 km/h (0 Bft) 97,87 %
19.02.2021 02:18 5,4 C 5,0 C 3,9 C 93 % 1014,7 hPa 0,0 l/m 0 min 0 min 0 W/m 0,0 km/h (0 Bft) 97,87 %
19.02.2021 02:20 5,4 C 5,0 C 3,9 C 93 % 1014,8 hPa 0,0 l/m 0 min 0 min 0 W/m 0,0 km/h (0 Bft) 95,65 %
19.02.2021 02:22 5,4 C 5,0 C 3,9 C 93 % 1014,8 hPa 0,0 l/m 0 min 0 min 0 W/m 0,0 km/h (0 Bft) 98,31 %
19.02.2021 02:24 5,4 C 4,4 C 3,9 C 93 % 1014,8 hPa 0,0 l/m 0 min 0 min 0 W/m 0,0 km/h (0 Bft) 100,00 %
19.02.2021 02:26 5,4 C 4,4 C 3,9 C 93 % 1014,8 hPa 0,0 l/m 0 min 0 min 0 W/m 0,0 km/h (0 Bft) 97,87 %
19.02.2021 02:28 5,4 C 4,4 C 3,9 C 93 % 1014,8 hPa 0,0 l/m 0 min 0 min 0 W/m 0,0 km/h (0 Bft) 97,14 %
19.02.2021 02:30 5,3 C 4,4 C 3,9 C 93 % 1014,8 hPa 0,0 l/m 0 min 0 min 0 W/m 0,0 km/h (0 Bft) 96,55 %
19.02.2021 02:32 5,3 C 4,4 C 3,9 C 93 % 1014,9 hPa 0,0 l/m 0 min 0 min 0 W/m 0,0 km/h (0 Bft) 97,87 %
19.02.2021 02:34 5,3 C 4,4 C 3,9 C 93 % 1014,9 hPa 0,0 l/m 0 min 0 min 0 W/m 0,0 km/h (0 Bft) 100,00 %
19.02.2021 02:36 5,3 C 4,4 C 3,9 C 93 % 1014,9 hPa 0,0 l/m 0 min 0 min 0 W/m 0,0 km/h (0 Bft) 98,31 %
19.02.2021 02:38 5,3 C 4,4 C 3,9 C 93 % 1014,9 hPa 0,0 l/m 0 min 0 min 0 W/m 0,0 km/h (0 Bft) 97,87 %
19.02.2021 02:40 5,2 C 4,4 C 3,9 C 93 % 1014,9 hPa 0,0 l/m 0 min 0 min 0 W/m 0,0 km/h (0 Bft) 100,00 %
19.02.2021 02:42 5,2 C 4,4 C 3,9 C 93 % 1014,9 hPa 0,0 l/m 0 min 0 min 0 W/m 0,0 km/h (0 Bft) 100,00 %
19.02.2021 02:44 5,2 C 4,4 C 3,9 C 93 % 1015,0 hPa 0,0 l/m 0 min 0 min 0 W/m 0,0 km/h (0 Bft) 98,31 %
19.02.2021 02:46 5,1 C 4,4 C 3,9 C 93 % 1015,0 hPa 0,0 l/m 0 min 0 min 0 W/m 0,0 km/h (0 Bft) 100,00 %
19.02.2021 02:48 5,1 C 4,4 C 3,9 C 93 % 1015,1 hPa 0,0 l/m 0 min 0 min 0 W/m 0,0 km/h (0 Bft) 97,87 %
19.02.2021 02:50 5,1 C 4,4 C 3,9 C 93 % 1015,0 hPa 0,0 l/m 0 min 0 min 0 W/m 0,0 km/h (0 Bft) 95,74 %
19.02.2021 02:52 5,1 C 4,4 C 3,9 C 93 % 1015,1 hPa 0,0 l/m 0 min 0 min 0 W/m 0,0 km/h (0 Bft) 100,00 %
19.02.2021 02:54 5,1 C 4,4 C 3,9 C 93 % 1015,1 hPa 0,0 l/m 0 min 0 min 0 W/m 0,0 km/h (0 Bft) 98,25 %
19.02.2021 02:56 5,1 C 4,4 C 3,9 C 93 % 1015,1 hPa 0,0 l/m 0 min 0 min 0 W/m 0,0 km/h (0 Bft) 100,00 %
19.02.2021 02:58 5,1 C 4,4 C 3,9 C 93 % 1015,1 hPa 0,0 l/m 0 min 0 min 0 W/m 0,0 km/h (0 Bft) 95,74 %
19.02.2021 03:00 5,1 C 4,4 C 3,9 C 93 % 1015,1 hPa 0,0 l/m 0 min 0 min 0 W/m 3,2 km/h (1 Bft) 100,00 %
19.02.2021 03:02 5,1 C 4,4 C 3,9 C 93 % 1015,1 hPa 0,0 l/m 0 min 0 min 0 W/m 0,0 km/h (0 Bft) 100,00 %
19.02.2021 03:04 5,1 C 4,4 C 3,9 C 93 % 1015,2 hPa 0,0 l/m 0 min 0 min 0 W/m 0,0 km/h (0 Bft) 100,00 %
19.02.2021 03:06 5,1 C 4,4 C 3,9 C 93 % 1015,2 hPa 0,0 l/m 0 min 0 min 0 W/m 0,0 km/h (0 Bft) 97,87 %
19.02.2021 03:08 5,0 C 4,4 C 3,9 C 93 % 1015,2 hPa 0,0 l/m 0 min 0 min 0 W/m 0,0 km/h (0 Bft) 97,87 %
19.02.2021 03:10 5,0 C 4,4 C 3,9 C 93 % 1015,2 hPa 0,0 l/m 0 min 0 min 0 W/m 0,0 km/h (0 Bft) 97,87 %
19.02.2021 03:12 5,0 C 4,4 C 3,9 C 93 % 1015,3 hPa 0,0 l/m 0 min 0 min 0 W/m 0,0 km/h (0 Bft) 100,00 %
19.02.2021 03:14 5,0 C 4,4 C 3,9 C 93 % 1015,3 hPa 0,0 l/m 0 min 0 min 0 W/m 0,0 km/h (0 Bft) 100,00 %
19.02.2021 03:16 5,0 C 4,4 C 3,9 C 93 % 1015,3 hPa 0,0 l/m 0 min 0 min 0 W/m 0,0 km/h (0 Bft) 100,00 %
19.02.2021 03:18 5,0 C 4,4 C 3,9 C 93 % 1015,3 hPa 0,0 l/m 0 min 0 min 0 W/m 0,0 km/h (0 Bft) 100,00 %
19.02.2021 03:20 5,0 C 4,4 C 3,9 C 93 % 1015,3 hPa 0,0 l/m 0 min 0 min 0 W/m 0,0 km/h (0 Bft) 97,87 %
19.02.2021 03:22 5,0 C 4,4 C 3,9 C 93 % 1015,3 hPa 0,0 l/m 0 min 0 min 0 W/m 0,0 km/h (0 Bft) 97,87 %
19.02.2021 03:24 5,0 C 4,4 C 3,9 C 93 % 1015,4 hPa 0,0 l/m 0 min 0 min 0 W/m 0,0 km/h (0 Bft) 95,74 %
19.02.2021 03:26 5,0 C 4,4 C 3,9 C 93 % 1015,4 hPa 0,0 l/m 0 min 0 min 0 W/m 0,0 km/h (0 Bft) 100,00 %
19.02.2021 03:28 5,0 C 4,4 C 3,9 C 93 % 1015,4 hPa 0,0 l/m 0 min 0 min 0 W/m 0,0 km/h (0 Bft) 93,62 %
19.02.2021 03:30 5,0 C 4,4 C 3,9 C 93 % 1015,5 hPa 0,0 l/m 0 min 0 min 0 W/m 0,0 km/h (0 Bft) 97,87 %
19.02.2021 03:32 5,0 C 4,4 C 3,9 C 93 % 1015,6 hPa 0,0 l/m 0 min 0 min 0 W/m 0,0 km/h (0 Bft) 100,00 %
19.02.2021 03:34 4,9 C 4,4 C 3,9 C 93 % 1015,6 hPa 0,0 l/m 0 min 0 min 0 W/m 0,0 km/h (0 Bft) 97,87 %
19.02.2021 03:36 4,9 C 4,4 C 3,9 C 93 % 1015,5 hPa 0,0 l/m 0 min 0 min 0 W/m 0,0 km/h (0 Bft) 97,87 %
19.02.2021 03:38 4,9 C 4,4 C 3,9 C 93 % 1015,6 hPa 0,0 l/m 0 min 0 min 0 W/m 0,0 km/h (0 Bft) 97,83 %
19.02.2021 03:40 4,9 C 4,4 C 3,9 C 93 % 1015,6 hPa 0,0 l/m 0 min 0 min 0 W/m 0,0 km/h (0 Bft) 97,87 %
19.02.2021 03:42 4,9 C 4,4 C 3,9 C 93 % 1015,6 hPa 0,0 l/m 0 min 0 min 0 W/m 0,0 km/h (0 Bft) 97,87 %
19.02.2021 03:44 4,9 C 4,4 C 3,4 C 93 % 1015,6 hPa 0,0 l/m 0 min 0 min 0 W/m 0,0 km/h (0 Bft) 98,00 %
19.02.2021 03:46 4,9 C 4,4 C 3,4 C 93 % 1015,7 hPa 0,0 l/m 0 min 0 min 0 W/m 0,0 km/h (0 Bft) 97,87 %
19.02.2021 03:48 4,9 C 4,4 C 3,4 C 93 % 1015,7 hPa 0,0 l/m 0 min 0 min 0 W/m 0,0 km/h (0 Bft) 97,87 %
19.02.2021 03:50 4,9 C 4,4 C 3,4 C 93 % 1015,7 hPa 0,0 l/m 0 min 0 min 0 W/m 0,0 km/h (0 Bft) 95,65 %
19.02.2021 03:52 4,9 C 4,4 C 3,4 C 93 % 1015,7 hPa 0,0 l/m 0 min 0 min 0 W/m 0,0 km/h (0 Bft) 97,87 %
19.02.2021 03:54 4,9 C 4,4 C 3,4 C 93 % 1015,7 hPa 0,0 l/m 0 min 0 min 0 W/m 0,0 km/h (0 Bft) 97,87 %
19.02.2021 03:56 4,9 C 4,4 C 3,4 C 93 % 1015,7 hPa 0,0 l/m 0 min 0 min 0 W/m 0,0 km/h (0 Bft) 97,87 %
19.02.2021 03:58 4,8 C 4,4 C 3,4 C 93 % 1015,7 hPa 0,0 l/m 0 min 0 min 0 W/m 0,0 km/h (0 Bft) 95,74 %
19.02.2021 04:00 4,8 C 3,9 C 3,4 C 93 % 1015,8 hPa 0,0 l/m 0 min 0 min 0 W/m 0,0 km/h (0 Bft) 97,83 %
19.02.2021 04:02 4,8 C 4,4 C 3,4 C 93 % 1015,8 hPa 0,0 l/m 0 min 0 min 0 W/m 0,0 km/h (0 Bft) 100,00 %
19.02.2021 04:04 4,8 C 4,4 C 3,4 C 93 % 1015,8 hPa 0,0 l/m 0 min 0 min 0 W/m 0,0 km/h (0 Bft) 95,74 %
19.02.2021 04:06 4,8 C 3,9 C 3,4 C 93 % 1015,8 hPa 0,0 l/m 0 min 0 min 0 W/m 0,0 km/h (0 Bft) 97,30 %
19.02.2021 04:08 4,8 C 3,9 C 3,4 C 93 % 1015,8 hPa 0,0 l/m 0 min 0 min 0 W/m 0,0 km/h (0 Bft) 93,62 %
19.02.2021 04:10 4,8 C 3,9 C 3,4 C 93 % 1015,8 hPa 0,0 l/m 0 min 0 min 0 W/m 0,0 km/h (0 Bft) 97,87 %
19.02.2021 04:12 4,7 C 3,9 C 3,4 C 93 % 1015,8 hPa 0,0 l/m 0 min 0 min 0 W/m 0,0 km/h (0 Bft) 97,83 %
19.02.2021 04:14 4,7 C 3,9 C 3,4 C 93 % 1015,8 hPa 0,0 l/m 0 min 0 min 0 W/m 0,0 km/h (0 Bft) 91,49 %
19.02.2021 04:16 4,7 C 3,9 C 3,4 C 93 % 1015,9 hPa 0,0 l/m 0 min 0 min 0 W/m 0,0 km/h (0 Bft) 97,87 %
19.02.2021 04:18 4,6 C 3,9 C 3,4 C 93 % 1015,9 hPa 0,0 l/m 0 min 0 min 0 W/m 0,0 km/h (0 Bft) 95,74 %
19.02.2021 04:20 4,6 C 3,9 C 3,4 C 93 % 1015,9 hPa 0,0 l/m 0 min 0 min 0 W/m 0,0 km/h (0 Bft) 93,62 %
19.02.2021 04:22 4,6 C 3,9 C 3,4 C 93 % 1015,9 hPa 0,0 l/m 0 min 0 min 0 W/m 0,0 km/h (0 Bft) 93,62 %
19.02.2021 04:24 4,6 C 3,9 C 3,4 C 93 % 1015,9 hPa 0,0 l/m 0 min 0 min 0 W/m 3,2 km/h (1 Bft) 97,83 %
19.02.2021 04:26 4,6 C 3,9 C 3,4 C 93 % 1016,0 hPa 0,0 l/m 0 min 0 min 0 W/m 3,2 km/h (1 Bft) 97,87 %
19.02.2021 04:28 4,6 C 3,9 C 3,4 C 93 % 1015,9 hPa 0,0 l/m 0 min 0 min 0 W/m 0,0 km/h (0 Bft) 97,87 %
19.02.2021 04:30 4,6 C 3,9 C 3,4 C 93 % 1016,0 hPa 0,0 l/m 0 min 0 min 0 W/m 0,0 km/h (0 Bft) 97,87 %
19.02.2021 04:32 4,6 C 3,9 C 3,4 C 93 % 1016,0 hPa 0,0 l/m 0 min 0 min 0 W/m 0,0 km/h (0 Bft) 97,87 %
19.02.2021 04:34 4,5 C 3,9 C 3,4 C 93 % 1016,0 hPa 0,0 l/m 0 min 0 min 0 W/m 0,0 km/h (0 Bft) 97,87 %
19.02.2021 04:36 4,5 C 3,9 C 3,4 C 93 % 1016,0 hPa 0,0 l/m 0 min 0 min 0 W/m 3,2 km/h (1 Bft) 97,83 %
19.02.2021 04:38 4,5 C 3,9 C 3,4 C 93 % 1016,0 hPa 0,0 l/m 0 min 0 min 0 W/m 3,2 km/h (1 Bft) 97,87 %
19.02.2021 04:40 4,5 C 3,9 C 3,4 C 93 % 1016,0 hPa 0,0 l/m 0 min 0 min 0 W/m 0,0 km/h (0 Bft) 93,62 %
19.02.2021 04:42 4,5 C 3,9 C 3,4 C 93 % 1016,0 hPa 0,0 l/m 0 min 0 min 0 W/m 0,0 km/h (0 Bft) 95,74 %
19.02.2021 04:44 4,5 C 3,9 C 3,4 C 93 % 1016,0 hPa 0,0 l/m 0 min 0 min 0 W/m 3,2 km/h (1 Bft) 97,87 %
19.02.2021 04:46 4,5 C 3,9 C 3,4 C 93 % 1015,9 hPa 0,0 l/m 0 min 0 min 0 W/m 0,0 km/h (0 Bft) 97,87 %
19.02.2021 04:48 4,4 C 3,9 C 3,4 C 93 % 1016,0 hPa 0,0 l/m 0 min 0 min 0 W/m 0,0 km/h (0 Bft) 97,83 %
19.02.2021 04:50 4,4 C 3,9 C 3,4 C 93 % 1016,1 hPa 0,0 l/m 0 min 0 min 0 W/m 0,0 km/h (0 Bft) 97,87 %
19.02.2021 04:52 4,4 C 3,9 C 3,4 C 93 % 1016,1 hPa 0,0 l/m 0 min 0 min 0 W/m 0,0 km/h (0 Bft) 97,87 %
19.02.2021 04:54 4,4 C 3,9 C 3,4 C 93 % 1016,1 hPa 0,0 l/m 0 min 0 min 0 W/m 0,0 km/h (0 Bft) 95,74 %
19.02.2021 04:56 4,4 C 3,9 C 3,4 C 93 % 1016,2 hPa 0,0 l/m 0 min 0 min 0 W/m 0,0 km/h (0 Bft) 97,14 %
19.02.2021 04:58 4,4 C 3,9 C 3,4 C 93 % 1016,2 hPa 0,0 l/m 0 min 0 min 0 W/m 0,0 km/h (0 Bft) 100,00 %
19.02.2021 05:00 4,4 C 3,9 C 3,4 C 93 % 1016,3 hPa 0,0 l/m 0 min 0 min 0 W/m 0,0 km/h (0 Bft) 97,87 %
19.02.2021 05:02 4,4 C 3,9 C 3,4 C 93 % 1016,2 hPa 0,0 l/m 0 min 0 min 0 W/m 0,0 km/h (0 Bft) 54,35 %
19.02.2021 05:04 4,4 C 3,9 C 3,4 C 93 % 1016,2 hPa 0,0 l/m 0 min 0 min 0 W/m 3,2 km/h (1 Bft) 97,83 %
19.02.2021 05:06 4,3 C 3,9 C 3,4 C 93 % 1016,2 hPa 0,0 l/m 0 min 0 min 0 W/m 0,0 km/h (0 Bft) 97,87 %
19.02.2021 05:08 4,3 C 3,9 C 3,4 C 93 % 1016,3 hPa 0,0 l/m 0 min 0 min 0 W/m 0,0 km/h (0 Bft) 100,00 %
19.02.2021 05:10 4,3 C 3,9 C 3,4 C 93 % 1016,3 hPa 0,0 l/m 0 min 0 min 0 W/m 0,0 km/h (0 Bft) 97,87 %
19.02.2021 05:12 4,3 C 3,9 C 3,4 C 93 % 1016,3 hPa 0,0 l/m 0 min 0 min 0 W/m 0,0 km/h (0 Bft) 97,87 %
19.02.2021 05:14 4,3 C 3,9 C 3,4 C 93 % 1016,3 hPa 0,0 l/m 0 min 0 min 0 W/m 0,0 km/h (0 Bft) 100,00 %
19.02.2021 05:16 4,3 C 3,9 C 3,4 C 93 % 1016,2 hPa 0,0 l/m 0 min 0 min 0 W/m 0,0 km/h (0 Bft) 100,00 %
19.02.2021 05:18 4,3 C 3,9 C 3,4 C 93 % 1016,3 hPa 0,0 l/m 0 min 0 min 0 W/m 0,0 km/h (0 Bft) 100,00 %
19.02.2021 05:20 4,3 C 3,9 C 3,4 C 93 % 1016,3 hPa 0,0 l/m 0 min 0 min 0 W/m 3,2 km/h (1 Bft) 97,87 %
19.02.2021 05:22 4,3 C 3,9 C 3,4 C 93 % 1016,3 hPa 0,0 l/m 0 min 0 min 0 W/m 3,2 km/h (1 Bft) 100,00 %
19.02.2021 05:24 4,3 C 3,9 C 3,4 C 93 % 1016,3 hPa 0,0 l/m 0 min 0 min 0 W/m 0,0 km/h (0 Bft) 100,00 %
19.02.2021 05:26 4,3 C 3,9 C 3,4 C 93 % 1016,3 hPa 0,0 l/m 0 min 0 min 0 W/m 0,0 km/h (0 Bft) 100,00 %
19.02.2021 05:28 4,3 C 3,9 C 3,4 C 93 % 1016,4 hPa 0,0 l/m 0 min 0 min 0 W/m 0,0 km/h (0 Bft) 100,00 %
19.02.2021 05:30 4,3 C 3,9 C 3,4 C 93 % 1016,4 hPa 0,0 l/m 0 min 0 min 0 W/m 0,0 km/h (0 Bft) 100,00 %
19.02.2021 05:32 4,3 C 3,9 C 3,4 C 93 % 1016,4 hPa 0,0 l/m 0 min 0 min 0 W/m 0,0 km/h (0 Bft) 100,00 %
19.02.2021 05:34 4,3 C 3,9 C 3,4 C 93 % 1016,4 hPa 0,0 l/m 0 min 0 min 0 W/m 0,0 km/h (0 Bft) 100,00 %
19.02.2021 05:36 4,3 C 3,9 C 3,4 C 93 % 1016,5 hPa 0,0 l/m 0 min 0 min 0 W/m 0,0 km/h (0 Bft) 100,00 %
19.02.2021 05:38 4,3 C 3,9 C 3,4 C 93 % 1016,5 hPa 0,0 l/m 0 min 0 min 0 W/m 0,0 km/h (0 Bft) 100,00 %
19.02.2021 05:40 4,3 C 3,9 C 3,4 C 94 % 1016,5 hPa 0,0 l/m 0 min 0 min 0 W/m 0,0 km/h (0 Bft) 100,00 %
19.02.2021 05:42 4,3 C 3,9 C 3,4 C 94 % 1016,5 hPa 0,0 l/m 0 min 0 min 0 W/m 0,0 km/h (0 Bft) 100,00 %
19.02.2021 05:44 4,3 C 3,9 C 3,4 C 94 % 1016,5 hPa 0,0 l/m 0 min 0 min 0 W/m 0,0 km/h (0 Bft) 100,00 %
19.02.2021 05:46 4,3 C 3,9 C 3,4 C 94 % 1016,5 hPa 0,0 l/m 0 min 0 min 0 W/m 0,0 km/h (0 Bft) 100,00 %
19.02.2021 05:48 4,3 C 3,9 C 3,4 C 94 % 1016,5 hPa 0,0 l/m 0 min 0 min 0 W/m 0,0 km/h (0 Bft) 97,87 %
19.02.2021 05:50 4,3 C 3,9 C 3,4 C 94 % 1016,5 hPa 0,0 l/m 0 min 0 min 0 W/m 0,0 km/h (0 Bft) 100,00 %
19.02.2021 05:52 4,3 C 3,9 C 3,4 C 94 % 1016,6 hPa 0,0 l/m 0 min 0 min 0 W/m 0,0 km/h (0 Bft) 100,00 %
19.02.2021 05:54 4,3 C 3,9 C 3,4 C 94 % 1016,6 hPa 0,0 l/m 0 min 0 min 0 W/m 0,0 km/h (0 Bft) 100,00 %
19.02.2021 05:56 4,3 C 3,9 C 3,4 C 94 % 1016,6 hPa 0,0 l/m 0 min 0 min 0 W/m 0,0 km/h (0 Bft) 100,00 %
19.02.2021 05:58 4,3 C 3,9 C 3,4 C 94 % 1016,6 hPa 0,0 l/m 0 min 0 min 0 W/m 0,0 km/h (0 Bft) 97,87 %
19.02.2021 06:00 4,3 C 3,9 C 3,4 C 94 % 1016,5 hPa 0,0 l/m 0 min 0 min 0 W/m 0,0 km/h (0 Bft) 100,00 %
19.02.2021 06:02 4,3 C 3,9 C 3,4 C 94 % 1016,5 hPa 0,0 l/m 0 min 0 min 0 W/m 0,0 km/h (0 Bft) 100,00 %
19.02.2021 06:04 4,3 C 3,3 C 3,4 C 94 % 1016,5 hPa 0,0 l/m 0 min 0 min 0 W/m 0,0 km/h (0 Bft) 100,00 %
19.02.2021 06:08 4,2 C 3,3 C 3,4 C 94 % 1016,6 hPa 0,0 l/m 0 min 0 min 0 W/m 0,0 km/h (0 Bft) 99,00 %
19.02.2021 06:10 4,2 C 3,3 C 3,4 C 94 % 1016,6 hPa 0,0 l/m 0 min 0 min 0 W/m 0,0 km/h (0 Bft) 100,00 %
19.02.2021 06:12 4,2 C 3,3 C 3,4 C 94 % 1016,6 hPa 0,0 l/m 0 min 0 min 0 W/m 0,0 km/h (0 Bft) 100,00 %
19.02.2021 06:14 4,1 C 3,3 C 3,4 C 94 % 1016,6 hPa 0,0 l/m 0 min 0 min 0 W/m 0,0 km/h (0 Bft) 97,87 %
19.02.2021 06:16 4,1 C 3,3 C 2,8 C 94 % 1016,5 hPa 0,0 l/m 0 min 0 min 0 W/m 0,0 km/h (0 Bft) 100,00 %
19.02.2021 06:18 4,1 C 3,3 C 2,8 C 94 % 1016,6 hPa 0,0 l/m 0 min 0 min 0 W/m 0,0 km/h (0 Bft) 100,00 %
19.02.2021 06:20 4,1 C 3,3 C 2,8 C 94 % 1016,6 hPa 0,0 l/m 0 min 0 min 0 W/m 0,0 km/h (0 Bft) 97,87 %
19.02.2021 06:22 4,1 C 3,3 C 2,8 C 94 % 1016,5 hPa 0,0 l/m 0 min 0 min 0 W/m 0,0 km/h (0 Bft) 97,87 %
19.02.2021 06:24 4,1 C 3,3 C 2,8 C 94 % 1016,5 hPa 0,0 l/m 0 min 0 min 0 W/m 0,0 km/h (0 Bft) 97,87 %
19.02.2021 06:26 4,1 C 3,3 C 2,8 C 94 % 1016,5 hPa 0,0 l/m 0 min 0 min 0 W/m 0,0 km/h (0 Bft) 97,87 %
19.02.2021 06:28 4,1 C 3,3 C 2,8 C 94 % 1016,6 hPa 0,0 l/m 0 min 0 min 0 W/m 0,0 km/h (0 Bft) 97,83 %
19.02.2021 06:30 4,1 C 3,3 C 2,8 C 94 % 1016,5 hPa 0,0 l/m 0 min 0 min 0 W/m 3,2 km/h (1 Bft) 97,87 %
19.02.2021 06:32 4,0 C 3,3 C 2,8 C 94 % 1016,6 hPa 0,0 l/m 0 min 0 min 0 W/m 0,0 km/h (0 Bft) 97,92 %
19.02.2021 06:34 4,0 C 3,3 C 2,8 C 94 % 1016,5 hPa 0,0 l/m 0 min 0 min 0 W/m 0,0 km/h (0 Bft) 97,87 %
19.02.2021 06:36 4,0 C 3,3 C 2,8 C 94 % 1016,5 hPa 0,0 l/m 0 min 0 min 0 W/m 0,0 km/h (0 Bft) 97,87 %
19.02.2021 06:38 4,0 C 3,3 C 2,8 C 94 % 1016,6 hPa 0,0 l/m 0 min 0 min 0 W/m 3,2 km/h (1 Bft) 97,87 %
19.02.2021 06:40 4,0 C 3,3 C 2,8 C 94 % 1016,6 hPa 0,0 l/m 0 min 0 min 0 W/m 0,0 km/h (0 Bft) 97,83 %
19.02.2021 06:42 4,0 C 3,3 C 2,8 C 94 % 1016,6 hPa 0,0 l/m 0 min 0 min 0 W/m 0,0 km/h (0 Bft) 97,87 %
19.02.2021 06:44 4,0 C 3,3 C 2,8 C 94 % 1016,7 hPa 0,0 l/m 0 min 0 min 0 W/m 0,0 km/h (0 Bft) 97,87 %
19.02.2021 06:46 4,0 C 3,3 C 2,8 C 94 % 1016,6 hPa 0,0 l/m 0 min 0 min 0 W/m 0,0 km/h (0 Bft) 95,74 %
19.02.2021 06:48 4,0 C 3,3 C 2,8 C 94 % 1016,7 hPa 0,0 l/m 0 min 0 min 0 W/m 0,0 km/h (0 Bft) 97,87 %
19.02.2021 06:50 4,0 C 3,3 C 3,4 C 94 % 1016,7 hPa 0,0 l/m 0 min 0 min 0 W/m 3,2 km/h (1 Bft) 97,87 %
19.02.2021 06:52 4,0 C 3,3 C 3,4 C 94 % 1016,7 hPa 0,0 l/m 0 min 0 min 0 W/m 0,0 km/h (0 Bft) 97,83 %
19.02.2021 06:54 4,0 C 3,3 C 3,4 C 94 % 1016,8 hPa 0,0 l/m 0 min 0 min 0 W/m 0,0 km/h (0 Bft) 97,87 %
19.02.2021 06:56 4,0 C 3,3 C 3,4 C 94 % 1016,8 hPa 0,0 l/m 0 min 0 min 0 W/m 0,0 km/h (0 Bft) 95,74 %
19.02.2021 06:58 3,9 C 3,3 C 3,4 C 94 % 1016,8 hPa 0,0 l/m 0 min 0 min 0 W/m 0,0 km/h (0 Bft) 97,83 %
19.02.2021 07:00 3,9 C 3,3 C 3,4 C 94 % 1016,8 hPa 0,0 l/m 0 min 0 min 0 W/m 0,0 km/h (0 Bft) 97,87 %
19.02.2021 07:02 3,9 C 3,3 C 2,8 C 94 % 1016,9 hPa 0,0 l/m 0 min 0 min 0 W/m 0,0 km/h (0 Bft) 52,27 %
19.02.2021 07:04 3,9 C 3,3 C 2,8 C 94 % 1017,0 hPa 0,0 l/m 0 min 0 min 0 W/m 0,0 km/h (0 Bft) 97,87 %
19.02.2021 07:06 3,9 C 3,3 C 2,8 C 94 % 1016,9 hPa 0,0 l/m 0 min 0 min 0 W/m 0,0 km/h (0 Bft) 100,00 %
19.02.2021 07:08 3,9 C 3,3 C 2,8 C 94 % 1016,9 hPa 0,0 l/m 0 min 0 min 0 W/m 0,0 km/h (0 Bft) 100,00 %
19.02.2021 07:10 3,9 C 2,8 C 2,8 C 94 % 1017,0 hPa 0,0 l/m 0 min 0 min 0 W/m 0,0 km/h (0 Bft) 100,00 %
19.02.2021 07:12 3,8 C 2,8 C 2,8 C 94 % 1016,9 hPa 0,0 l/m 0 min 0 min 0 W/m 0,0 km/h (0 Bft) 100,00 %
19.02.2021 07:14 3,8 C 2,8 C 2,8 C 94 % 1016,9 hPa 0,0 l/m 0 min 0 min 0 W/m 0,0 km/h (0 Bft) 95,65 %
19.02.2021 07:16 3,8 C 2,8 C 2,8 C 94 % 1016,9 hPa 0,0 l/m 0 min 0 min 0 W/m 0,0 km/h (0 Bft) 95,74 %
19.02.2021 07:18 3,8 C 2,8 C 2,8 C 94 % 1017,0 hPa 0,0 l/m 0 min 0 min 0 W/m 0,0 km/h (0 Bft) 97,87 %
19.02.2021 07:20 3,7 C 2,8 C 2,8 C 94 % 1017,0 hPa 0,0 l/m 0 min 0 min 0 W/m 0,0 km/h (0 Bft) 97,87 %
19.02.2021 07:25 3,6 C 2,2 C 2,3 C 94 % 1017,0 hPa 0,0 l/m 0 min 0 min 0 W/m 0,0 km/h (0 Bft) 97,96 %
19.02.2021 07:26 3,6 C 2,2 C 2,3 C 94 % 1017,0 hPa 0,0 l/m 0 min 0 min 0 W/m 0,0 km/h (0 Bft) 100,00 %
19.02.2021 07:28 3,5 C 2,2 C 2,3 C 94 % 1017,0 hPa 0,0 l/m 0 min 0 min 0 W/m 0,0 km/h (0 Bft) 94,59 %
19.02.2021 07:30 3,5 C 2,2 C 2,3 C 94 % 1017,0 hPa 0,0 l/m 0 min 0 min 0 W/m 0,0 km/h (0 Bft) 95,83 %
19.02.2021 07:32 3,4 C 2,2 C 2,3 C 94 % 1017,0 hPa 0,0 l/m 0 min 0 min 0 W/m 0,0 km/h (0 Bft) 95,74 %
19.02.2021 07:34 3,4 C 2,2 C 2,3 C 94 % 1017,0 hPa 0,0 l/m 0 min 0 min 0 W/m 0,0 km/h (0 Bft) 95,74 %
19.02.2021 07:36 3,3 C 2,2 C 2,3 C 94 % 1017,0 hPa 0,0 l/m 0 min 0 min 0 W/m 0,0 km/h (0 Bft) 93,48 %
19.02.2021 07:38 3,3 C 2,2 C 2,3 C 94 % 1017,0 hPa 0,0 l/m 0 min 0 min 0 W/m 0,0 km/h (0 Bft) 95,74 %
19.02.2021 07:40 3,3 C 2,2 C 2,3 C 94 % 1017,0 hPa 0,0 l/m 0 min 0 min 0 W/m 0,0 km/h (0 Bft) 96,30 %
19.02.2021 07:42 3,2 C 2,2 C 2,3 C 94 % 1017,1 hPa 0,0 l/m 0 min 0 min 0 W/m 0,0 km/h (0 Bft) 93,88 %
19.02.2021 07:44 3,1 C 2,2 C 2,3 C 94 % 1017,0 hPa 0,0 l/m 0 min 0 min 0 W/m 3,2 km/h (1 Bft) 95,83 %
19.02.2021 07:46 3,1 C 2,2 C 2,3 C 94 % 1017,1 hPa 0,0 l/m 0 min 0 min 0 W/m 0,0 km/h (0 Bft) 93,62 %
19.02.2021 07:48 3,1 C 2,2 C 2,3 C 94 % 1017,1 hPa 0,0 l/m 0 min 0 min 2 W/m 0,0 km/h (0 Bft) 95,74 %
19.02.2021 07:50 3,1 C 2,2 C 2,3 C 94 % 1017,1 hPa 0,0 l/m 0 min 0 min 5 W/m 0,0 km/h (0 Bft) 93,48 %
19.02.2021 07:52 3,1 C 2,2 C 2,3 C 94 % 1017,1 hPa 0,0 l/m 0 min 0 min 6 W/m 0,0 km/h (0 Bft) 95,74 %
19.02.2021 07:54 3,0 C 2,2 C 2,3 C 94 % 1017,2 hPa 0,0 l/m 0 min 0 min 8 W/m 0,0 km/h (0 Bft) 97,87 %
19.02.2021 07:56 3,0 C 2,2 C 2,3 C 94 % 1017,1 hPa 0,0 l/m 0 min 0 min 9 W/m 0,0 km/h (0 Bft) 94,29 %
19.02.2021 07:58 3,0 C 2,2 C 2,3 C 94 % 1017,1 hPa 0,0 l/m 0 min 0 min 11 W/m 0,0 km/h (0 Bft) 96,61 %
19.02.2021 08:00 3,0 C 2,2 C 2,3 C 94 % 1017,2 hPa 0,0 l/m 0 min 0 min 12 W/m 0,0 km/h (0 Bft) 95,74 %
19.02.2021 08:02 2,9 C 2,2 C 2,3 C 94 % 1017,2 hPa 0,0 l/m 0 min 0 min 13 W/m 0,0 km/h (0 Bft) 95,65 %
19.02.2021 08:04 2,9 C 2,2 C 2,3 C 94 % 1017,2 hPa 0,0 l/m 0 min 0 min 14 W/m 0,0 km/h (0 Bft) 97,87 %
19.02.2021 08:06 2,9 C 2,2 C 2,3 C 94 % 1017,2 hPa 0,0 l/m 0 min 0 min 16 W/m 0,0 km/h (0 Bft) 97,87 %
19.02.2021 08:08 2,9 C 2,2 C 2,3 C 94 % 1017,3 hPa 0,0 l/m 0 min 0 min 16 W/m 0,0 km/h (0 Bft) 97,87 %
19.02.2021 08:10 2,9 C 2,2 C 2,3 C 95 % 1017,3 hPa 0,0 l/m 0 min 0 min 18 W/m 0,0 km/h (0 Bft) 97,14 %
19.02.2021 08:12 2,9 C 2,2 C 2,3 C 94 % 1017,3 hPa 0,0 l/m 0 min 0 min 18 W/m 0,0 km/h (0 Bft) 98,28 %
19.02.2021 08:14 2,9 C 2,2 C 2,3 C 94 % 1017,3 hPa 0,0 l/m 0 min 0 min 19 W/m 0,0 km/h (0 Bft) 97,83 %
19.02.2021 08:16 2,9 C 2,2 C 2,3 C 95 % 1017,3 hPa 0,0 l/m 0 min 0 min 19 W/m 0,0 km/h (0 Bft) 97,87 %
19.02.2021 08:18 2,9 C 2,2 C 2,3 C 95 % 1017,3 hPa 0,0 l/m 0 min 0 min 19 W/m 0,0 km/h (0 Bft) 97,87 %
19.02.2021 08:20 2,8 C 2,2 C 2,3 C 95 % 1017,3 hPa 0,0 l/m 0 min 0 min 19 W/m 0,0 km/h (0 Bft) 97,87 %
19.02.2021 08:22 2,8 C 2,2 C 2,3 C 95 % 1017,3 hPa 0,0 l/m 0 min 0 min 20 W/m 0,0 km/h (0 Bft) 97,87 %
19.02.2021 08:24 2,8 C 2,2 C 2,3 C 95 % 1017,3 hPa 0,0 l/m 0 min 0 min 21 W/m 0,0 km/h (0 Bft) 97,87 %
19.02.2021 08:26 2,8 C 2,2 C 2,3 C 95 % 1017,3 hPa 0,0 l/m 0 min 0 min 21 W/m 0,0 km/h (0 Bft) 95,65 %
19.02.2021 08:28 2,8 C 2,2 C 2,3 C 95 % 1017,3 hPa 0,0 l/m 0 min 0 min 21 W/m 0,0 km/h (0 Bft) 97,87 %
19.02.2021 08:30 2,8 C 2,2 C 2,3 C 95 % 1017,4 hPa 0,0 l/m 0 min 0 min 21 W/m 0,0 km/h (0 Bft) 95,74 %
19.02.2021 08:32 2,8 C 2,2 C 2,3 C 95 % 1017,4 hPa 0,0 l/m 0 min 0 min 21 W/m 0,0 km/h (0 Bft) 97,87 %
19.02.2021 08:34 2,8 C 2,2 C 2,8 C 95 % 1017,4 hPa 0,0 l/m 0 min 0 min 21 W/m 0,0 km/h (0 Bft) 97,87 %
19.02.2021 08:36 2,8 C 2,8 C 2,8 C 95 % 1017,4 hPa 0,0 l/m 0 min 0 min 23 W/m 0,0 km/h (0 Bft) 97,87 %
19.02.2021 08:38 2,8 C 2,8 C 2,8 C 95 % 1017,4 hPa 0,0 l/m 0 min 0 min 23 W/m 0,0 km/h (0 Bft) 97,83 %
19.02.2021 08:40 2,8 C 2,8 C 2,8 C 95 % 1017,5 hPa 0,0 l/m 0 min 0 min 25 W/m 0,0 km/h (0 Bft) 97,87 %
19.02.2021 08:42 2,9 C 2,8 C 2,8 C 95 % 1017,5 hPa 0,0 l/m 0 min 0 min 26 W/m 0,0 km/h (0 Bft) 97,87 %
19.02.2021 08:44 2,9 C 2,8 C 2,8 C 95 % 1017,5 hPa 0,0 l/m 0 min 0 min 26 W/m 0,0 km/h (0 Bft) 97,87 %
19.02.2021 08:46 2,9 C 2,8 C 2,8 C 95 % 1017,6 hPa 0,0 l/m 0 min 0 min 28 W/m 0,0 km/h (0 Bft) 97,87 %
19.02.2021 08:48 2,9 C 2,8 C 2,8 C 95 % 1017,6 hPa 0,0 l/m 0 min 0 min 29 W/m 0,0 km/h (0 Bft) 97,83 %
19.02.2021 08:50 2,9 C 2,8 C 2,8 C 95 % 1017,6 hPa 0,0 l/m 0 min 0 min 30 W/m 0,0 km/h (0 Bft) 95,74 %
19.02.2021 08:52 2,9 C 2,8 C 2,8 C 95 % 1017,6 hPa 0,0 l/m 0 min 0 min 32 W/m 0,0 km/h (0 Bft) 93,62 %
19.02.2021 08:54 2,9 C 2,8 C 2,8 C 95 % 1017,6 hPa 0,0 l/m 0 min 0 min 33 W/m 0,0 km/h (0 Bft) 93,62 %
19.02.2021 08:56 2,9 C 2,8 C 2,8 C 96 % 1017,6 hPa 0,0 l/m 0 min 0 min 34 W/m 0,0 km/h (0 Bft) 95,74 %
19.02.2021 08:58 3,0 C 2,8 C 2,8 C 96 % 1017,6 hPa 0,0 l/m 0 min 0 min 36 W/m 0,0 km/h (0 Bft) 95,74 %
19.02.2021 09:00 3,0 C 2,8 C 2,8 C 96 % 1017,6 hPa 0,0 l/m 0 min 0 min 37 W/m 0,0 km/h (0 Bft) 100,00 %
19.02.2021 09:02 3,0 C 3,3 C 2,8 C 96 % 1017,7 hPa 0,0 l/m 0 min 0 min 39 W/m 0,0 km/h (0 Bft) 95,74 %
19.02.2021 09:04 3,0 C 3,3 C 3,4 C 96 % 1017,6 hPa 0,0 l/m 0 min 0 min 40 W/m 0,0 km/h (0 Bft) 91,49 %
19.02.2021 09:06 3,0 C 3,3 C 3,4 C 96 % 1017,6 hPa 0,0 l/m 0 min 0 min 40 W/m 0,0 km/h (0 Bft) 95,74 %
19.02.2021 09:08 3,1 C 3,3 C 3,4 C 96 % 1017,7 hPa 0,0 l/m 0 min 0 min 41 W/m 0,0 km/h (0 Bft) 93,48 %
19.02.2021 09:10 3,1 C 3,3 C 3,4 C 96 % 1017,7 hPa 0,0 l/m 0 min 0 min 42 W/m 0,0 km/h (0 Bft) 95,74 %
19.02.2021 09:12 3,2 C 3,3 C 3,4 C 96 % 1017,7 hPa 0,0 l/m 0 min 0 min 42 W/m 0,0 km/h (0 Bft) 93,62 %
19.02.2021 09:14 3,3 C 3,3 C 3,4 C 96 % 1017,8 hPa 0,0 l/m 0 min 0 min 43 W/m 0,0 km/h (0 Bft) 95,74 %
19.02.2021 09:16 3,3 C 3,3 C 3,4 C 96 % 1017,8 hPa 0,0 l/m 0 min 0 min 44 W/m 0,0 km/h (0 Bft) 95,74 %
19.02.2021 09:18 3,4 C 3,3 C 3,4 C 96 % 1017,8 hPa 0,0 l/m 0 min 0 min 46 W/m 0,0 km/h (0 Bft) 95,74 %
19.02.2021 09:20 3,4 C 3,9 C 3,4 C 96 % 1017,8 hPa 0,0 l/m 0 min 0 min 47 W/m 0,0 km/h (0 Bft) 95,65 %
19.02.2021 09:22 3,4 C 3,9 C 3,4 C 96 % 1017,8 hPa 0,0 l/m 0 min 0 min 48 W/m 0,0 km/h (0 Bft) 95,74 %
19.02.2021 09:24 3,5 C 3,9 C 3,9 C 96 % 1017,9 hPa 0,0 l/m 0 min 0 min 49 W/m 0,0 km/h (0 Bft) 95,74 %
19.02.2021 09:26 3,5 C 3,9 C 3,9 C 96 % 1017,8 hPa 0,0 l/m 0 min 0 min 49 W/m 0,0 km/h (0 Bft) 93,62 %
19.02.2021 09:28 3,6 C 3,9 C 3,9 C 96 % 1017,8 hPa 0,0 l/m 0 min 0 min 47 W/m 0,0 km/h (0 Bft) 93,62 %
19.02.2021 09:30 3,6 C 3,9 C 3,9 C 96 % 1017,8 hPa 0,0 l/m 0 min 0 min 46 W/m 0,0 km/h (0 Bft) 95,74 %
19.02.2021 09:32 3,7 C 3,9 C 3,9 C 96 % 1017,8 hPa 0,0 l/m 0 min 0 min 45 W/m 0,0 km/h (0 Bft) 93,48 %
19.02.2021 09:34 3,7 C 3,9 C 3,9 C 96 % 1017,9 hPa 0,0 l/m 0 min 0 min 43 W/m 0,0 km/h (0 Bft) 95,74 %
19.02.2021 09:36 3,8 C 3,9 C 3,9 C 96 % 1017,9 hPa 0,0 l/m 0 min 0 min 42 W/m 0,0 km/h (0 Bft) 97,87 %
19.02.2021 09:38 3,8 C 3,9 C 3,9 C 96 % 1017,9 hPa 0,0 l/m 0 min 0 min 40 W/m 0,0 km/h (0 Bft) 100,00 %
19.02.2021 09:40 3,9 C 3,9 C 3,9 C 96 % 1018,0 hPa 0,0 l/m 0 min 0 min 38 W/m 0,0 km/h (0 Bft) 97,87 %
19.02.2021 09:42 3,9 C 3,9 C 3,9 C 96 % 1018,0 hPa 0,0 l/m 0 min 0 min 35 W/m 0,0 km/h (0 Bft) 97,87 %
19.02.2021 09:44 3,9 C 3,9 C 3,9 C 96 % 1018,1 hPa 0,0 l/m 0 min 0 min 33 W/m 0,0 km/h (0 Bft) 95,65 %
19.02.2021 09:46 4,0 C 4,4 C 3,9 C 96 % 1018,1 hPa 0,0 l/m 0 min 0 min 33 W/m 0,0 km/h (0 Bft) 97,87 %
19.02.2021 09:48 4,0 C 4,4 C 3,9 C 96 % 1018,1 hPa 0,0 l/m 0 min 0 min 33 W/m 0,0 km/h (0 Bft) 37,50 %
19.02.2021 09:50 4,1 C 4,4 C 4,5 C 96 % 1018,0 hPa 0,0 l/m 0 min 0 min 33 W/m 0,0 km/h (0 Bft) 100,00 %
19.02.2021 09:52 4,1 C 4,4 C 4,5 C 96 % 1018,0 hPa 0,0 l/m 0 min 0 min 32 W/m 0,0 km/h (0 Bft) 97,87 %
19.02.2021 09:54 4,2 C 4,4 C 4,5 C 96 % 1017,9 hPa 0,0 l/m 0 min 0 min 32 W/m 0,0 km/h (0 Bft) 97,87 %
19.02.2021 09:56 4,3 C 4,4 C 4,5 C 96 % 1017,9 hPa 0,0 l/m 0 min 0 min 29 W/m 0,0 km/h (0 Bft) 100,00 %
19.02.2021 09:58 4,3 C 4,4 C 4,5 C 96 % 1017,9 hPa 0,0 l/m 0 min 0 min 28 W/m 0,0 km/h (0 Bft) 100,00 %
19.02.2021 10:00 4,3 C 4,4 C 4,5 C 96 % 1017,9 hPa 0,0 l/m 0 min 0 min 27 W/m 0,0 km/h (0 Bft) 97,87 %
19.02.2021 10:02 4,4 C 4,4 C 4,5 C 96 % 1017,9 hPa 0,0 l/m 0 min 0 min 26 W/m 0,0 km/h (0 Bft) 97,87 %
19.02.2021 10:04 4,4 C 5,0 C 4,5 C 95 % 1018,0 hPa 0,0 l/m 0 min 0 min 26 W/m 0,0 km/h (0 Bft) 95,74 %
19.02.2021 10:06 4,4 C 5,0 C 4,5 C 95 % 1018,0 hPa 0,0 l/m 0 min 0 min 28 W/m 0,0 km/h (0 Bft) 97,87 %
19.02.2021 10:08 4,5 C 5,0 C 4,5 C 95 % 1018,0 hPa 0,0 l/m 0 min 0 min 28 W/m 0,0 km/h (0 Bft) 97,83 %
19.02.2021 10:10 4,5 C 5,0 C 4,5 C 95 % 1018,0 hPa 0,0 l/m 0 min 0 min 28 W/m 0,0 km/h (0 Bft) 97,87 %
19.02.2021 10:12 4,6 C 5,0 C 5,0 C 95 % 1018,0 hPa 0,0 l/m 0 min 0 min 28 W/m 0,0 km/h (0 Bft) 95,74 %
19.02.2021 10:14 4,7 C 5,0 C 5,0 C 95 % 1018,0 hPa 0,0 l/m 0 min 0 min 28 W/m 0,0 km/h (0 Bft) 95,74 %
19.02.2021 10:16 4,8 C 5,0 C 5,0 C 95 % 1018,0 hPa 0,0 l/m 0 min 0 min 29 W/m 0,0 km/h (0 Bft) 97,87 %
19.02.2021 10:18 4,9 C 5,0 C 5,0 C 95 % 1018,0 hPa 0,0 l/m 0 min 0 min 30 W/m 0,0 km/h (0 Bft) 97,87 %
19.02.2021 10:20 4,9 C 5,6 C 5,0 C 95 % 1018,0 hPa 0,0 l/m 0 min 0 min 30 W/m 0,0 km/h (0 Bft) 95,65 %
19.02.2021 10:22 5,0 C 5,6 C 5,0 C 95 % 1018,0 hPa 0,0 l/m 0 min 0 min 30 W/m 0,0 km/h (0 Bft) 97,87 %
19.02.2021 10:24 5,0 C 5,6 C 5,0 C 95 % 1018,0 hPa 0,0 l/m 0 min 0 min 30 W/m 0,0 km/h (0 Bft) 97,87 %
19.02.2021 10:26 5,1 C 5,6 C 5,0 C 95 % 1017,9 hPa 0,0 l/m 0 min 0 min 32 W/m 3,2 km/h (1 Bft) 97,87 %
19.02.2021 10:28 5,2 C 5,6 C 5,0 C 95 % 1018,0 hPa 0,0 l/m 0 min 0 min 32 W/m 0,0 km/h (0 Bft) 95,74 %
19.02.2021 10:30 5,3 C 5,6 C 5,6 C 95 % 1017,9 hPa 0,0 l/m 0 min 0 min 32 W/m 0,0 km/h (0 Bft) 97,83 %
19.02.2021 10:32 5,3 C 5,6 C 5,6 C 94 % 1017,9 hPa 0,0 l/m 0 min 0 min 32 W/m 3,2 km/h (1 Bft) 97,87 %
19.02.2021 10:34 5,4 C 5,6 C 5,6 C 95 % 1017,9 hPa 0,0 l/m 0 min 0 min 33 W/m 0,0 km/h (0 Bft) 97,87 %
19.02.2021 10:36 5,5 C 5,6 C 5,6 C 94 % 1017,9 hPa 0,0 l/m 0 min 0 min 33 W/m 0,0 km/h (0 Bft) 97,87 %
19.02.2021 10:38 5,5 C 6,1 C 5,6 C 94 % 1017,9 hPa 0,0 l/m 0 min 0 min 33 W/m 3,2 km/h (1 Bft) 97,87 %
19.02.2021 10:40 5,6 C 6,1 C 5,6 C 94 % 1017,8 hPa 0,0 l/m 0 min 0 min 33 W/m 0,0 km/h (0 Bft) 97,87 %
19.02.2021 10:42 5,8 C 6,1 C 6,1 C 94 % 1017,9 hPa 0,0 l/m 0 min 0 min 33 W/m 0,0 km/h (0 Bft) 97,83 %
19.02.2021 10:44 5,8 C 6,1 C 6,1 C 94 % 1017,9 hPa 0,0 l/m 0 min 0 min 33 W/m 0,0 km/h (0 Bft) 100,00 %
19.02.2021 10:46 5,9 C 6,1 C 6,1 C 94 % 1017,9 hPa 0,0 l/m 0 min 0 min 35 W/m 0,0 km/h (0 Bft) 100,00 %
19.02.2021 10:48 5,9 C 6,7 C 6,1 C 94 % 1017,9 hPa 0,0 l/m 0 min 0 min 35 W/m 0,0 km/h (0 Bft) 97,87 %
19.02.2021 10:50 6,0 C 6,7 C 6,1 C 93 % 1017,9 hPa 0,0 l/m 0 min 0 min 37 W/m 6,4 km/h (2 Bft) 97,87 %
19.02.2021 10:52 6,0 C 6,7 C 6,1 C 93 % 1018,0 hPa 0,0 l/m 0 min 0 min 38 W/m 0,0 km/h (0 Bft) 100,00 %
19.02.2021 10:54 6,1 C 6,7 C 6,1 C 93 % 1018,0 hPa 0,0 l/m 0 min 0 min 39 W/m 3,2 km/h (1 Bft) 57,45 %
19.02.2021 10:56 6,2 C 6,7 C 6,7 C 93 % 1018,0 hPa 0,0 l/m 0 min 0 min 40 W/m 0,0 km/h (0 Bft) 100,00 %
19.02.2021 10:58 6,3 C 7,2 C 6,7 C 93 % 1018,0 hPa 0,0 l/m 0 min 0 min 40 W/m 0,0 km/h (0 Bft) 100,00 %
19.02.2021 11:00 6,4 C 7,2 C 6,7 C 93 % 1018,1 hPa 0,0 l/m 0 min 0 min 42 W/m 0,0 km/h (0 Bft) 100,00 %
19.02.2021 11:02 6,4 C 7,2 C 6,7 C 93 % 1018,0 hPa 0,0 l/m 0 min 0 min 43 W/m 0,0 km/h (0 Bft) 100,00 %
19.02.2021 11:04 6,5 C 7,2 C 6,7 C 93 % 1017,9 hPa 0,0 l/m 0 min 0 min 44 W/m 0,0 km/h (0 Bft) 100,00 %
19.02.2021 11:06 6,6 C 7,2 C 6,7 C 92 % 1018,0 hPa 0,0 l/m 0 min 0 min 46 W/m 3,2 km/h (1 Bft) 100,00 %
19.02.2021 11:08 6,7 C 7,2 C 6,7 C 92 % 1018,0 hPa 0,0 l/m 0 min 0 min 46 W/m 3,2 km/h (1 Bft) 100,00 %
19.02.2021 11:10 6,8 C 7,2 C 6,7 C 92 % 1018,0 hPa 0,0 l/m 0 min 0 min 47 W/m 0,0 km/h (0 Bft) 100,00 %
19.02.2021 11:12 6,8 C 7,2 C 7,3 C 91 % 1018,0 hPa 0,0 l/m 0 min 0 min 50 W/m 0,0 km/h (0 Bft) 100,00 %
19.02.2021 11:14 6,9 C 7,2 C 7,3 C 91 % 1018,0 hPa 0,0 l/m 0 min 0 min 53 W/m 0,0 km/h (0 Bft) 100,00 %
19.02.2021 11:16 7,0 C 7,8 C 7,3 C 91 % 1018,0 hPa 0,0 l/m 0 min 0 min 58 W/m 0,0 km/h (0 Bft) 100,00 %
19.02.2021 11:18 7,0 C 7,8 C 7,3 C 91 % 1018,0 hPa 0,0 l/m 0 min 0 min 63 W/m 3,2 km/h (1 Bft) 97,83 %
19.02.2021 11:20 7,1 C 7,8 C 7,3 C 91 % 1018,1 hPa 0,0 l/m 0 min 0 min 84 W/m 3,2 km/h (1 Bft) 100,00 %
19.02.2021 11:22 7,3 C 8,3 C 7,8 C 91 % 1018,0 hPa 0,0 l/m 0 min 0 min 169 W/m 0,0 km/h (0 Bft) 100,00 %
19.02.2021 11:24 7,4 C 8,3 C 7,8 C 90 % 1018,0 hPa 0,0 l/m 2 min 0 min 427 W/m 3,2 km/h (1 Bft) 100,00 %
19.02.2021 11:26 7,5 C 9,4 C 7,8 C 90 % 1018,0 hPa 0,0 l/m 2 min 0 min 417 W/m 0,0 km/h (0 Bft) 100,00 %
19.02.2021 11:28 7,5 C 9,4 C 7,8 C 90 % 1018,0 hPa 0,0 l/m 2 min 0 min 401 W/m 0,0 km/h (0 Bft) 97,87 %
19.02.2021 11:30 7,6 C 8,9 C 8,4 C 90 % 1017,9 hPa 0,0 l/m 0 min 0 min 154 W/m 3,2 km/h (1 Bft) 100,00 %
19.02.2021 11:32 7,7 C 9,4 C 8,4 C 90 % 1018,0 hPa 0,0 l/m 0 min 0 min 87 W/m 0,0 km/h (0 Bft) 100,00 %
19.02.2021 11:34 7,8 C 8,9 C 8,4 C 89 % 1017,9 hPa 0,0 l/m 0 min 0 min 86 W/m 0,0 km/h (0 Bft) 100,00 %
19.02.2021 11:36 7,9 C 8,9 C 8,4 C 89 % 1017,9 hPa 0,0 l/m 0 min 0 min 85 W/m 0,0 km/h (0 Bft) 100,00 %
19.02.2021 11:38 7,9 C 9,4 C 8,4 C 89 % 1017,9 hPa 0,0 l/m 0 min 0 min 87 W/m 0,0 km/h (0 Bft) 97,87 %
19.02.2021 11:40 8,0 C 10,6 C 8,9 C 88 % 1017,9 hPa 0,0 l/m 0 min 0 min 118 W/m 3,2 km/h (1 Bft) 97,87 %
19.02.2021 11:42 8,1 C 12,2 C 8,9 C 88 % 1017,9 hPa 0,0 l/m 0 min 0 min 155 W/m 3,2 km/h (1 Bft) 97,83 %
19.02.2021 11:44 8,3 C 12,2 C 8,9 C 87 % 1017,8 hPa 0,0 l/m 0 min 0 min 187 W/m 0,0 km/h (0 Bft) 97,87 %
19.02.2021 11:46 8,4 C 12,2 C 8,9 C 87 % 1017,9 hPa 0,0 l/m 2 min 0 min 430 W/m 0,0 km/h (0 Bft) 97,87 %
19.02.2021 11:48 8,5 C 12,8 C 8,9 C 86 % 1017,9 hPa 0,0 l/m 2 min 0 min 452 W/m 0,0 km/h (0 Bft) 97,87 %
19.02.2021 11:50 8,6 C 13,9 C 9,5 C 86 % 1017,9 hPa 0,0 l/m 2 min 0 min 446 W/m 0,0 km/h (0 Bft) 93,62 %
19.02.2021 11:52 8,8 C 13,9 C 9,5 C 86 % 1017,9 hPa 0,0 l/m 2 min 0 min 447 W/m 3,2 km/h (1 Bft) 97,83 %
19.02.2021 11:54 8,9 C 13,9 C 9,5 C 84 % 1017,9 hPa 0,0 l/m 2 min 0 min 459 W/m 3,2 km/h (1 Bft) 97,87 %
19.02.2021 11:56 9,0 C 13,3 C 10,0 C 84 % 1017,9 hPa 0,0 l/m 2 min 0 min 462 W/m 3,2 km/h (1 Bft) 97,87 %
19.02.2021 11:58 9,1 C 13,3 C 10,0 C 84 % 1017,9 hPa 0,0 l/m 2 min 0 min 458 W/m 0,0 km/h (0 Bft) 97,87 %
19.02.2021 12:00 9,3 C 13,9 C 11,1 C 83 % 1017,9 hPa 0,0 l/m 2 min 0 min 460 W/m 3,2 km/h (1 Bft) 97,87 %
19.02.2021 12:02 9,4 C 13,3 C 13,4 C 83 % 1017,9 hPa 0,0 l/m 2 min 0 min 455 W/m 6,4 km/h (2 Bft) 97,87 %
19.02.2021 12:04 9,4 C 12,8 C 13,9 C 82 % 1017,9 hPa 0,0 l/m 2 min 0 min 454 W/m 0,0 km/h (0 Bft) 97,83 %
19.02.2021 12:08 9,6 C 12,8 C 14,5 C 82 % 1017,8 hPa 0,0 l/m 4 min 0 min 462 W/m 6,4 km/h (2 Bft) 97,87 %
19.02.2021 12:10 9,8 C 13,3 C 15,0 C 81 % 1017,8 hPa 0,0 l/m 2 min 0 min 461 W/m 3,2 km/h (1 Bft) 97,87 %
19.02.2021 12:12 9,8 C 13,3 C 15,0 C 81 % 1017,8 hPa 0,0 l/m 2 min 0 min 463 W/m 0,0 km/h (0 Bft) 95,74 %
19.02.2021 12:14 9,9 C 13,9 C 15,0 C 80 % 1017,7 hPa 0,0 l/m 2 min 0 min 452 W/m 6,4 km/h (2 Bft) 95,74 %
19.02.2021 12:16 9,9 C 13,9 C 15,6 C 80 % 1017,7 hPa 0,0 l/m 2 min 0 min 466 W/m 16,1 km/h (3 Bft) 100,00 %
19.02.2021 12:18 10,0 C 14,4 C 15,6 C 80 % 1017,7 hPa 0,0 l/m 2 min 0 min 466 W/m 0,0 km/h (0 Bft) 95,74 %
19.02.2021 12:20 10,0 C 13,9 C 15,6 C 80 % 1017,7 hPa 0,0 l/m 2 min 0 min 478 W/m 0,0 km/h (0 Bft) 93,62 %
19.02.2021 12:22 10,1 C 14,4 C 15,6 C 80 % 1017,8 hPa 0,0 l/m 2 min 0 min 471 W/m 0,0 km/h (0 Bft) 95,74 %
19.02.2021 12:24 10,3 C 14,4 C 16,1 C 79 % 1017,7 hPa 0,0 l/m 2 min 0 min 477 W/m 0,0 km/h (0 Bft) 95,74 %
19.02.2021 12:26 10,3 C 15,0 C 16,1 C 79 % 1017,7 hPa 0,0 l/m 2 min 0 min 473 W/m 3,2 km/h (1 Bft) 95,74 %
19.02.2021 12:28 10,4 C 15,6 C 16,7 C 79 % 1017,6 hPa 0,0 l/m 2 min 0 min 475 W/m 0,0 km/h (0 Bft) 95,74 %
19.02.2021 12:30 10,5 C 15,6 C 17,3 C 79 % 1017,6 hPa 0,0 l/m 2 min 0 min 463 W/m 3,2 km/h (1 Bft) 93,48 %
19.02.2021 12:32 10,6 C 16,1 C 16,7 C 79 % 1017,6 hPa 0,0 l/m 2 min 0 min 458 W/m 0,0 km/h (0 Bft) 95,74 %
19.02.2021 12:34 10,7 C 16,1 C 16,7 C 78 % 1017,6 hPa 0,0 l/m 2 min 0 min 448 W/m 0,0 km/h (0 Bft) 95,74 %
19.02.2021 12:36 10,8 C 15,6 C 16,7 C 78 % 1017,6 hPa 0,0 l/m 2 min 0 min 448 W/m 3,2 km/h (1 Bft) 95,74 %
19.02.2021 12:38 10,8 C 15,6 C 16,7 C 78 % 1017,5 hPa 0,0 l/m 2 min 0 min 452 W/m 3,2 km/h (1 Bft) 93,62 %
19.02.2021 12:40 10,9 C 15,0 C 16,7 C 78 % 1017,4 hPa 0,0 l/m 2 min 0 min 451 W/m 3,2 km/h (1 Bft) 93,48 %
19.02.2021 12:42 10,9 C 15,0 C 16,7 C 77 % 1017,4 hPa 0,0 l/m 2 min 0 min 464 W/m 0,0 km/h (0 Bft) 93,62 %
19.02.2021 12:44 11,0 C 15,6 C 17,3 C 77 % 1017,3 hPa 0,0 l/m 2 min 0 min 473 W/m 0,0 km/h (0 Bft) 95,74 %
19.02.2021 12:46 11,1 C 15,6 C 17,3 C 77 % 1017,3 hPa 0,0 l/m 2 min 0 min 487 W/m 3,2 km/h (1 Bft) 97,87 %
19.02.2021 12:48 11,1 C 15,6 C 16,7 C 77 % 1017,3 hPa 0,0 l/m 2 min 0 min 466 W/m 0,0 km/h (0 Bft) 95,74 %
19.02.2021 12:50 11,2 C 15,6 C 17,3 C 77 % 1017,2 hPa 0,0 l/m 2 min 0 min 448 W/m 0,0 km/h (0 Bft) 93,62 %
19.02.2021 12:52 11,3 C 15,0 C 16,7 C 77 % 1017,2 hPa 0,0 l/m 2 min 0 min 447 W/m 0,0 km/h (0 Bft) 93,48 %
19.02.2021 12:54 11,4 C 15,0 C 16,7 C 76 % 1017,2 hPa 0,0 l/m 2 min 0 min 445 W/m 0,0 km/h (0 Bft) 95,74 %
19.02.2021 12:56 11,4 C 15,0 C 16,1 C 76 % 1017,2 hPa 0,0 l/m 2 min 0 min 453 W/m 3,2 km/h (1 Bft) 93,62 %
19.02.2021 12:58 11,4 C 15,6 C 16,1 C 76 % 1017,2 hPa 0,0 l/m 2 min 0 min 482 W/m 3,2 km/h (1 Bft) 95,74 %
19.02.2021 13:00 11,5 C 15,0 C 16,7 C 75 % 1017,3 hPa 0,0 l/m 2 min 0 min 476 W/m 6,4 km/h (2 Bft) 95,74 %
19.02.2021 13:02 11,5 C 16,1 C 17,3 C 75 % 1017,3 hPa 0,0 l/m 2 min 0 min 477 W/m 3,2 km/h (1 Bft) 93,62 %
19.02.2021 13:04 11,6 C 16,1 C 17,8 C 76 % 1017,3 hPa 0,0 l/m 2 min 0 min 477 W/m 0,0 km/h (0 Bft) 96,23 %
19.02.2021 13:06 11,7 C 15,6 C 17,3 C 75 % 1017,2 hPa 0,0 l/m 2 min 0 min 486 W/m 0,0 km/h (0 Bft) 95,74 %
19.02.2021 13:08 11,8 C 15,6 C 17,3 C 74 % 1017,2 hPa 0,0 l/m 2 min 0 min 490 W/m 0,0 km/h (0 Bft) 95,65 %
19.02.2021 13:10 11,8 C 15,0 C 17,3 C 74 % 1017,2 hPa 0,0 l/m 2 min 0 min 483 W/m 0,0 km/h (0 Bft) 95,74 %
19.02.2021 13:12 11,9 C 15,6 C 16,7 C 74 % 1017,1 hPa 0,0 l/m 2 min 0 min 473 W/m 0,0 km/h (0 Bft) 93,62 %
19.02.2021 13:14 11,9 C 15,0 C 16,7 C 73 % 1017,1 hPa 0,0 l/m 2 min 0 min 446 W/m 0,0 km/h (0 Bft) 95,74 %
19.02.2021 13:16 12,0 C 14,4 C 16,1 C 72 % 1017,1 hPa 0,0 l/m 2 min 0 min 399 W/m 19,3 km/h (3 Bft) 97,37 %
19.02.2021 13:18 12,0 C 13,9 C 15,6 C 72 % 1017,1 hPa 0,0 l/m 2 min 0 min 426 W/m 6,4 km/h (2 Bft) 95,74 %
19.02.2021 13:20 12,0 C 14,4 C 15,0 C 71 % 1017,0 hPa 0,0 l/m 2 min 0 min 423 W/m 3,2 km/h (1 Bft) 97,87 %
19.02.2021 13:22 12,0 C 13,9 C 15,0 C 71 % 1017,0 hPa 0,0 l/m 2 min 0 min 399 W/m 3,2 km/h (1 Bft) 97,87 %
19.02.2021 13:24 12,0 C 13,3 C 14,5 C 70 % 1017,1 hPa 0,0 l/m 2 min 0 min 377 W/m 16,1 km/h (3 Bft) 95,65 %
19.02.2021 13:26 12,0 C 13,3 C 13,4 C 70 % 1017,0 hPa 0,0 l/m 2 min 0 min 348 W/m 6,4 km/h (2 Bft) 97,87 %
19.02.2021 13:28 11,9 C 13,3 C 13,4 C 70 % 1017,0 hPa 0,0 l/m 2 min 0 min 343 W/m 0,0 km/h (0 Bft) 95,74 %
19.02.2021 13:30 11,9 C 12,8 C 13,4 C 70 % 1017,1 hPa 0,0 l/m 2 min 0 min 339 W/m 3,2 km/h (1 Bft) 97,87 %
19.02.2021 13:32 11,9 C 12,8 C 12,8 C 70 % 1017,0 hPa 0,0 l/m 2 min 0 min 337 W/m 6,4 km/h (2 Bft) 95,74 %
19.02.2021 13:34 11,9 C 13,3 C 13,4 C 70 % 1017,0 hPa 0,0 l/m 2 min 0 min 325 W/m 0,0 km/h (0 Bft) 97,83 %
19.02.2021 13:36 11,8 C 12,8 C 12,3 C 70 % 1017,0 hPa 0,0 l/m 2 min 0 min 276 W/m 3,2 km/h (1 Bft) 97,87 %
19.02.2021 13:38 11,8 C 12,8 C 12,8 C 70 % 1017,0 hPa 0,0 l/m 0 min 0 min 224 W/m 0,0 km/h (0 Bft) 97,87 %
19.02.2021 13:40 11,8 C 12,8 C 12,8 C 70 % 1017,0 hPa 0,0 l/m 2 min 0 min 324 W/m 0,0 km/h (0 Bft) 97,87 %
19.02.2021 13:42 11,8 C 13,3 C 13,4 C 70 % 1017,0 hPa 0,0 l/m 2 min 0 min 355 W/m 0,0 km/h (0 Bft) 97,87 %
19.02.2021 13:44 11,8 C 13,3 C 13,4 C 70 % 1017,0 hPa 0,0 l/m 2 min 0 min 365 W/m 3,2 km/h (1 Bft) 95,74 %
19.02.2021 13:46 11,8 C 13,9 C 13,9 C 70 % 1016,9 hPa 0,0 l/m 2 min 0 min 378 W/m 0,0 km/h (0 Bft) 100,00 %
19.02.2021 13:48 11,8 C 13,9 C 13,9 C 70 % 1016,9 hPa 0,0 l/m 2 min 0 min 345 W/m 3,2 km/h (1 Bft) 100,00 %
19.02.2021 13:50 11,9 C 13,9 C 14,5 C 70 % 1016,8 hPa 0,0 l/m 2 min 0 min 358 W/m 0,0 km/h (0 Bft) 100,00 %
19.02.2021 13:52 11,9 C 13,3 C 13,9 C 70 % 1016,8 hPa 0,0 l/m 2 min 0 min 351 W/m 3,2 km/h (1 Bft) 97,87 %
19.02.2021 13:54 11,9 C 13,3 C 13,4 C 70 % 1016,8 hPa 0,0 l/m 2 min 0 min 344 W/m 22,5 km/h (4 Bft) 100,00 %
19.02.2021 13:56 11,9 C 13,3 C 13,4 C 70 % 1016,9 hPa 0,0 l/m 2 min 0 min 324 W/m 3,2 km/h (1 Bft) 100,00 %
19.02.2021 13:58 11,9 C 13,3 C 13,4 C 70 % 1016,9 hPa 0,0 l/m 2 min 0 min 302 W/m 3,2 km/h (1 Bft) 100,00 %
19.02.2021 14:00 11,9 C 12,8 C 12,8 C 69 % 1016,8 hPa 0,0 l/m 2 min 0 min 269 W/m 3,2 km/h (1 Bft) 100,00 %
19.02.2021 14:02 11,9 C 12,8 C 12,3 C 70 % 1016,8 hPa 0,0 l/m 2 min 0 min 243 W/m 0,0 km/h (0 Bft) 97,87 %
19.02.2021 14:04 11,9 C 12,2 C 11,7 C 70 % 1016,9 hPa 0,0 l/m 0 min 0 min 215 W/m 0,0 km/h (0 Bft) 100,00 %
19.02.2021 14:06 11,9 C 11,7 C 11,1 C 69 % 1016,8 hPa 0,0 l/m 2 min 0 min 219 W/m 0,0 km/h (0 Bft) 98,25 %
19.02.2021 14:08 11,9 C 12,2 C 11,1 C 70 % 1016,8 hPa 0,0 l/m 2 min 0 min 235 W/m 0,0 km/h (0 Bft) 100,00 %
19.02.2021 14:10 11,9 C 12,8 C 11,7 C 70 % 1016,7 hPa 0,0 l/m 2 min 0 min 273 W/m 3,2 km/h (1 Bft) 97,14 %
19.02.2021 14:12 11,9 C 13,3 C 12,8 C 70 % 1016,8 hPa 0,0 l/m 2 min 0 min 314 W/m 0,0 km/h (0 Bft) 100,00 %
19.02.2021 14:14 11,9 C 13,3 C 13,4 C 70 % 1016,7 hPa 0,0 l/m 2 min 0 min 335 W/m 0,0 km/h (0 Bft) 100,00 %
19.02.2021 14:16 11,9 C 13,3 C 13,4 C 70 % 1016,7 hPa 0,0 l/m 2 min 0 min 338 W/m 3,2 km/h (1 Bft) 97,87 %
19.02.2021 14:18 11,9 C 13,9 C 13,4 C 69 % 1016,7 hPa 0,0 l/m 2 min 0 min 343 W/m 0,0 km/h (0 Bft) 100,00 %
19.02.2021 14:20 11,9 C 13,3 C 12,8 C 70 % 1016,8 hPa 0,0 l/m 2 min 0 min 297 W/m 0,0 km/h (0 Bft) 97,87 %
19.02.2021 14:22 11,9 C 13,9 C 13,4 C 70 % 1016,8 hPa 0,0 l/m 2 min 0 min 294 W/m 22,5 km/h (4 Bft) 97,83 %
19.02.2021 14:24 11,9 C 13,9 C 13,4 C 69 % 1016,8 hPa 0,0 l/m 2 min 0 min 380 W/m 29,0 km/h (5 Bft) 98,31 %
19.02.2021 14:26 12,0 C 13,9 C 13,9 C 69 % 1016,7 hPa 0,0 l/m 2 min 0 min 395 W/m 19,3 km/h (3 Bft) 97,14 %
19.02.2021 14:28 12,0 C 13,9 C 13,9 C 69 % 1016,7 hPa 0,0 l/m 2 min 0 min 402 W/m 3,2 km/h (1 Bft) 95,74 %
19.02.2021 14:30 12,0 C 13,9 C 13,9 C 69 % 1016,7 hPa 0,0 l/m 2 min 0 min 358 W/m 0,0 km/h (0 Bft) 97,87 %
19.02.2021 14:32 12,0 C 13,3 C 12,8 C 69 % 1016,7 hPa 0,0 l/m 2 min 0 min 315 W/m 0,0 km/h (0 Bft) 93,62 %
19.02.2021 14:34 12,0 C 13,3 C 12,3 C 69 % 1016,7 hPa 0,0 l/m 2 min 0 min 304 W/m 0,0 km/h (0 Bft) 95,65 %
19.02.2021 14:36 12,0 C 12,8 C 11,7 C 69 % 1016,7 hPa 0,0 l/m 2 min 0 min 228 W/m 0,0 km/h (0 Bft) 95,74 %
19.02.2021 14:38 12,0 C 12,2 C 11,7 C 69 % 1016,7 hPa 0,0 l/m 2 min 0 min 226 W/m 0,0 km/h (0 Bft) 98,31 %
19.02.2021 14:40 12,0 C 12,2 C 11,1 C 69 % 1016,7 hPa 0,0 l/m 2 min 0 min 232 W/m 0,0 km/h (0 Bft) 97,14 %
19.02.2021 14:42 12,0 C 12,8 C 11,7 C 69 % 1016,7 hPa 0,0 l/m 2 min 0 min 293 W/m 0,0 km/h (0 Bft) 97,87 %
19.02.2021 14:44 12,0 C 12,2 C 11,7 C 69 % 1016,7 hPa 0,0 l/m 2 min 0 min 288 W/m 0,0 km/h (0 Bft) 97,87 %
19.02.2021 14:46 12,0 C 12,2 C 11,7 C 69 % 1016,7 hPa 0,0 l/m 2 min 0 min 291 W/m 0,0 km/h (0 Bft) 97,83 %
19.02.2021 14:48 11,9 C 12,2 C 11,1 C 69 % 1016,7 hPa 0,0 l/m 2 min 0 min 228 W/m 0,0 km/h (0 Bft) 97,87 %
19.02.2021 14:50 11,9 C 12,2 C 11,7 C 69 % 1016,7 hPa 0,0 l/m 2 min 0 min 276 W/m 0,0 km/h (0 Bft) 95,74 %
19.02.2021 14:52 11,9 C 12,8 C 11,7 C 70 % 1016,7 hPa 0,0 l/m 2 min 0 min 285 W/m 0,0 km/h (0 Bft) 97,87 %
19.02.2021 14:54 11,9 C 12,8 C 11,7 C 70 % 1016,7 hPa 0,0 l/m 2 min 0 min 308 W/m 0,0 km/h (0 Bft) 97,87 %
19.02.2021 14:56 11,9 C 12,8 C 12,3 C 70 % 1016,8 hPa 0,0 l/m 2 min 0 min 304 W/m 0,0 km/h (0 Bft) 97,87 %
19.02.2021 14:58 11,9 C 12,8 C 12,3 C 70 % 1016,7 hPa 0,0 l/m 2 min 0 min 318 W/m 6,4 km/h (2 Bft) 97,83 %
19.02.2021 15:00 11,9 C 13,3 C 12,8 C 70 % 1016,7 hPa 0,0 l/m 2 min 0 min 310 W/m 6,4 km/h (2 Bft) 97,87 %
19.02.2021 15:02 11,9 C 12,8 C 12,3 C 69 % 1016,8 hPa 0,0 l/m 2 min 0 min 308 W/m 12,9 km/h (3 Bft) 97,87 %
19.02.2021 15:04 11,9 C 12,8 C 12,3 C 69 % 1016,7 hPa 0,0 l/m 2 min 0 min 293 W/m 0,0 km/h (0 Bft) 100,00 %
19.02.2021 15:06 11,9 C 12,8 C 12,3 C 69 % 1016,7 hPa 0,0 l/m 2 min 0 min 265 W/m 3,2 km/h (1 Bft) 96,55 %
19.02.2021 15:08 11,9 C 12,8 C 11,7 C 69 % 1016,8 hPa 0,0 l/m 2 min 0 min 239 W/m 0,0 km/h (0 Bft) 100,00 %
19.02.2021 15:10 11,9 C 12,8 C 11,7 C 69 % 1016,7 hPa 0,0 l/m 2 min 0 min 248 W/m 0,0 km/h (0 Bft) 97,87 %
19.02.2021 15:12 11,9 C 12,8 C 11,7 C 69 % 1016,7 hPa 0,0 l/m 2 min 0 min 250 W/m 6,4 km/h (2 Bft) 100,00 %
19.02.2021 15:14 11,9 C 12,8 C 12,3 C 69 % 1016,6 hPa 0,0 l/m 2 min 0 min 260 W/m 0,0 km/h (0 Bft) 97,87 %
19.02.2021 15:16 11,9 C 12,8 C 12,3 C 70 % 1016,6 hPa 0,0 l/m 2 min 0 min 267 W/m 9,7 km/h (2 Bft) 97,87 %
19.02.2021 15:18 11,9 C 12,8 C 12,3 C 70 % 1016,6 hPa 0,0 l/m 2 min 0 min 252 W/m 3,2 km/h (1 Bft) 97,87 %
19.02.2021 15:20 11,9 C 12,8 C 12,3 C 69 % 1016,6 hPa 0,0 l/m 2 min 0 min 270 W/m 3,2 km/h (1 Bft) 97,87 %
19.02.2021 15:22 11,9 C 12,8 C 11,7 C 70 % 1016,6 hPa 0,0 l/m 2 min 0 min 230 W/m 16,1 km/h (3 Bft) 97,83 %
19.02.2021 15:24 11,9 C 12,8 C 11,1 C 70 % 1016,6 hPa 0,0 l/m 2 min 0 min 181 W/m 6,4 km/h (2 Bft) 97,87 %
19.02.2021 15:26 11,9 C 12,2 C 10,6 C 70 % 1016,6 hPa 0,0 l/m 2 min 0 min 191 W/m 3,2 km/h (1 Bft) 97,87 %
19.02.2021 15:28 11,9 C 11,7 C 10,6 C 69 % 1016,5 hPa 0,0 l/m 2 min 0 min 183 W/m 0,0 km/h (0 Bft) 97,87 %
19.02.2021 15:30 11,9 C 11,7 C 10,6 C 69 % 1016,6 hPa 0,0 l/m 2 min 0 min 198 W/m 6,4 km/h (2 Bft) 97,87 %
19.02.2021 15:32 11,8 C 12,2 C 11,1 C 70 % 1016,5 hPa 0,0 l/m 2 min 0 min 236 W/m 0,0 km/h (0 Bft) 95,65 %
19.02.2021 15:34 11,8 C 11,7 C 10,6 C 70 % 1016,5 hPa 0,0 l/m 2 min 0 min 168 W/m 0,0 km/h (0 Bft) 97,87 %
19.02.2021 15:36 11,8 C 11,7 C 10,0 C 70 % 1016,5 hPa 0,0 l/m 0 min 0 min 143 W/m 0,0 km/h (0 Bft) 97,87 %
19.02.2021 15:38 11,8 C 11,7 C 10,0 C 70 % 1016,5 hPa 0,0 l/m 0 min 0 min 136 W/m 12,9 km/h (3 Bft) 95,74 %
19.02.2021 15:40 11,7 C 11,7 C 10,0 C 69 % 1016,5 hPa 0,0 l/m 2 min 0 min 178 W/m 3,2 km/h (1 Bft) 97,87 %
19.02.2021 15:42 11,6 C 11,7 C 10,0 C 70 % 1016,5 hPa 0,0 l/m 2 min 0 min 149 W/m 3,2 km/h (1 Bft) 95,74 %
19.02.2021 15:44 11,6 C 11,7 C 10,0 C 70 % 1016,6 hPa 0,0 l/m 0 min 0 min 146 W/m 3,2 km/h (1 Bft) 97,87 %
19.02.2021 15:46 11,6 C 11,7 C 10,0 C 70 % 1016,6 hPa 0,0 l/m 2 min 0 min 183 W/m 0,0 km/h (0 Bft) 97,83 %
19.02.2021 15:48 11,6 C 11,7 C 10,0 C 70 % 1016,6 hPa 0,0 l/m 2 min 0 min 171 W/m 0,0 km/h (0 Bft) 97,87 %
19.02.2021 15:50 11,6 C 12,2 C 10,6 C 70 % 1016,5 hPa 0,0 l/m 2 min 0 min 190 W/m 0,0 km/h (0 Bft) 95,74 %
19.02.2021 15:52 11,6 C 12,2 C 11,1 C 71 % 1016,6 hPa 0,0 l/m 2 min 0 min 214 W/m 0,0 km/h (0 Bft) 97,87 %
19.02.2021 15:54 11,6 C 12,2 C 11,1 C 70 % 1016,5 hPa 0,0 l/m 2 min 0 min 210 W/m 0,0 km/h (0 Bft) 95,74 %
19.02.2021 15:56 11,6 C 12,2 C 11,1 C 70 % 1016,4 hPa 0,0 l/m 2 min 0 min 194 W/m 6,4 km/h (2 Bft) 97,83 %
19.02.2021 15:58 11,6 C 12,2 C 10,6 C 70 % 1016,4 hPa 0,0 l/m 2 min 0 min 174 W/m 0,0 km/h (0 Bft) 95,74 %
19.02.2021 16:00 11,6 C 12,2 C 10,6 C 70 % 1016,4 hPa 0,0 l/m 2 min 0 min 172 W/m 3,2 km/h (1 Bft) 97,87 %
19.02.2021 16:02 11,5 C 11,7 C 10,6 C 70 % 1016,4 hPa 0,0 l/m 2 min 0 min 170 W/m 3,2 km/h (1 Bft) 97,87 %
19.02.2021 16:04 11,5 C 11,7 C 10,0 C 70 % 1016,5 hPa 0,0 l/m 2 min 0 min 159 W/m 0,0 km/h (0 Bft) 97,87 %
19.02.2021 16:06 11,5 C 11,7 C 10,0 C 70 % 1016,4 hPa 0,0 l/m 2 min 0 min 155 W/m 0,0 km/h (0 Bft) 97,87 %
19.02.2021 16:08 11,5 C 11,7 C 10,0 C 70 % 1016,4 hPa 0,0 l/m 2 min 0 min 146 W/m 0,0 km/h (0 Bft) 97,83 %
19.02.2021 16:10 11,5 C 11,7 C 9,5 C 71 % 1016,4 hPa 0,0 l/m 2 min 0 min 129 W/m 0,0 km/h (0 Bft) 100,00 %
19.02.2021 16:12 11,5 C 11,1 C 9,5 C 71 % 1016,4 hPa 0,0 l/m 0 min 0 min 118 W/m 0,0 km/h (0 Bft) 95,74 %
19.02.2021 16:14 11,4 C 11,1 C 9,5 C 71 % 1016,5 hPa 0,0 l/m 2 min 0 min 121 W/m 0,0 km/h (0 Bft) 95,74 %
19.02.2021 16:16 11,4 C 11,1 C 9,5 C 71 % 1016,4 hPa 0,0 l/m 2 min 0 min 123 W/m 0,0 km/h (0 Bft) 97,87 %
19.02.2021 16:18 11,4 C 11,1 C 9,5 C 71 % 1016,4 hPa 0,0 l/m 2 min 0 min 127 W/m 0,0 km/h (0 Bft) 97,87 %
19.02.2021 16:20 11,4 C 11,1 C 8,9 C 71 % 1016,4 hPa 0,0 l/m 2 min 0 min 116 W/m 0,0 km/h (0 Bft) 97,83 %
19.02.2021 16:22 11,4 C 11,1 C 8,9 C 71 % 1016,4 hPa 0,0 l/m 2 min 0 min 109 W/m 0,0 km/h (0 Bft) 95,74 %
19.02.2021 16:24 11,3 C 11,1 C 9,5 C 71 % 1016,4 hPa 0,0 l/m 2 min 0 min 131 W/m 3,2 km/h (1 Bft) 95,74 %
19.02.2021 16:26 11,3 C 11,7 C 10,0 C 71 % 1016,4 hPa 0,0 l/m 2 min 0 min 136 W/m 0,0 km/h (0 Bft) 97,87 %
19.02.2021 16:28 11,3 C 11,7 C 10,0 C 71 % 1016,4 hPa 0,0 l/m 2 min 0 min 150 W/m 3,2 km/h (1 Bft) 97,87 %
19.02.2021 16:30 11,3 C 11,7 C 10,0 C 71 % 1016,4 hPa 0,0 l/m 2 min 0 min 152 W/m 0,0 km/h (0 Bft) 97,87 %
19.02.2021 16:32 11,3 C 11,7 C 10,0 C 71 % 1016,3 hPa 0,0 l/m 2 min 0 min 146 W/m 0,0 km/h (0 Bft) 97,83 %
19.02.2021 16:34 11,4 C 11,7 C 10,0 C 71 % 1016,4 hPa 0,0 l/m 2 min 0 min 152 W/m 3,2 km/h (1 Bft) 97,87 %
19.02.2021 16:36 11,3 C 11,7 C 9,5 C 71 % 1016,3 hPa 0,0 l/m 2 min 0 min 132 W/m 6,4 km/h (2 Bft) 95,74 %
19.02.2021 16:38 11,4 C 11,7 C 9,5 C 71 % 1016,4 hPa 0,0 l/m 2 min 0 min 116 W/m 3,2 km/h (1 Bft) 97,87 %
19.02.2021 16:40 11,4 C 11,7 C 8,9 C 71 % 1016,4 hPa 0,0 l/m 2 min 0 min 107 W/m 0,0 km/h (0 Bft) 97,87 %
19.02.2021 16:42 11,3 C 11,7 C 8,9 C 71 % 1016,3 hPa 0,0 l/m 2 min 0 min 104 W/m 0,0 km/h (0 Bft) 95,74 %
19.02.2021 16:44 11,3 C 11,7 C 8,9 C 71 % 1016,3 hPa 0,0 l/m 2 min 0 min 106 W/m 0,0 km/h (0 Bft) 97,83 %
19.02.2021 16:46 11,3 C 11,1 C 8,4 C 71 % 1016,3 hPa 0,0 l/m 2 min 0 min 110 W/m 16,1 km/h (3 Bft) 97,87 %
19.02.2021 16:48 11,3 C 11,1 C 8,4 C 72 % 1016,3 hPa 0,0 l/m 2 min 0 min 101 W/m 0,0 km/h (0 Bft) 97,87 %
19.02.2021 16:50 11,4 C 11,1 C 8,4 C 72 % 1016,3 hPa 0,0 l/m 2 min 0 min 97 W/m 0,0 km/h (0 Bft) 97,87 %
19.02.2021 16:52 11,3 C 11,1 C 8,4 C 71 % 1016,3 hPa 0,0 l/m 2 min 0 min 90 W/m 3,2 km/h (1 Bft) 95,74 %
19.02.2021 16:54 11,3 C 11,1 C 8,4 C 72 % 1016,2 hPa 0,0 l/m 2 min 0 min 74 W/m 0,0 km/h (0 Bft) 95,74 %
19.02.2021 16:56 11,3 C 10,6 C 8,4 C 72 % 1016,2 hPa 0,0 l/m 0 min 0 min 67 W/m 0,0 km/h (0 Bft) 95,65 %
19.02.2021 16:58 11,2 C 10,6 C 8,4 C 72 % 1016,2 hPa 0,0 l/m 0 min 0 min 63 W/m 0,0 km/h (0 Bft) 95,74 %
19.02.2021 17:00 11,2 C 10,6 C 7,8 C 72 % 1016,2 hPa 0,0 l/m 0 min 0 min 59 W/m 3,2 km/h (1 Bft) 95,74 %
19.02.2021 17:02 11,1 C 10,6 C 7,8 C 72 % 1016,2 hPa 0,0 l/m 0 min 0 min 55 W/m 0,0 km/h (0 Bft) 93,62 %
19.02.2021 17:04 11,1 C 10,6 C 7,8 C 72 % 1016,2 hPa 0,0 l/m 0 min 0 min 51 W/m 0,0 km/h (0 Bft) 97,87 %
19.02.2021 17:06 11,1 C 10,0 C 7,8 C 72 % 1016,2 hPa 0,0 l/m 0 min 0 min 47 W/m 0,0 km/h (0 Bft) 95,74 %
19.02.2021 17:08 11,0 C 10,0 C 7,8 C 73 % 1016,2 hPa 0,0 l/m 0 min 0 min 44 W/m 0,0 km/h (0 Bft) 97,83 %
19.02.2021 17:10 11,0 C 10,0 C 7,8 C 73 % 1016,2 hPa 0,0 l/m 0 min 0 min 40 W/m 0,0 km/h (0 Bft) 96,49 %
19.02.2021 17:12 10,9 C 10,0 C 7,3 C 73 % 1016,1 hPa 0,0 l/m 0 min 0 min 38 W/m 6,4 km/h (2 Bft) 97,87 %
19.02.2021 17:14 10,9 C 10,0 C 7,3 C 73 % 1016,1 hPa 0,0 l/m 0 min 0 min 35 W/m 0,0 km/h (0 Bft) 97,87 %
19.02.2021 17:16 10,9 C 10,0 C 7,3 C 73 % 1016,1 hPa 0,0 l/m 0 min 0 min 31 W/m 3,2 km/h (1 Bft) 95,65 %
19.02.2021 17:18 10,8 C 10,0 C 7,3 C 73 % 1016,0 hPa 0,0 l/m 0 min 0 min 28 W/m 0,0 km/h (0 Bft) 97,87 %
19.02.2021 17:20 10,8 C 10,0 C 7,3 C 73 % 1016,0 hPa 0,0 l/m 0 min 0 min 26 W/m 0,0 km/h (0 Bft) 97,87 %
19.02.2021 17:22 10,7 C 9,4 C 7,3 C 74 % 1016,0 hPa 0,0 l/m 0 min 0 min 25 W/m 0,0 km/h (0 Bft) 95,74 %
19.02.2021 17:24 10,7 C 9,4 C 7,3 C 74 % 1016,0 hPa 0,0 l/m 0 min 0 min 23 W/m 0,0 km/h (0 Bft) 97,87 %
19.02.2021 17:26 10,6 C 9,4 C 7,3 C 74 % 1016,0 hPa 0,0 l/m 0 min 0 min 21 W/m 0,0 km/h (0 Bft) 95,74 %
19.02.2021 17:28 10,6 C 9,4 C 6,7 C 74 % 1015,9 hPa 0,0 l/m 0 min 0 min 19 W/m 0,0 km/h (0 Bft) 97,83 %
19.02.2021 17:30 10,5 C 9,4 C 6,7 C 74 % 1015,9 hPa 0,0 l/m 0 min 0 min 18 W/m 0,0 km/h (0 Bft) 97,87 %
19.02.2021 17:32 10,5 C 9,4 C 6,7 C 74 % 1015,9 hPa 0,0 l/m 0 min 0 min 15 W/m 3,2 km/h (1 Bft) 97,87 %
19.02.2021 17:34 10,4 C 9,4 C 6,7 C 74 % 1015,8 hPa 0,0 l/m 0 min 0 min 14 W/m 0,0 km/h (0 Bft) 95,74 %
19.02.2021 17:36 10,4 C 9,4 C 6,7 C 74 % 1015,7 hPa 0,0 l/m 0 min 0 min 12 W/m 0,0 km/h (0 Bft) 93,62 %
19.02.2021 17:38 10,4 C 9,4 C 6,7 C 75 % 1015,7 hPa 0,0 l/m 0 min 0 min 12 W/m 0,0 km/h (0 Bft) 97,87 %
19.02.2021 17:40 10,3 C 9,4 C 6,7 C 75 % 1015,7 hPa 0,0 l/m 0 min 0 min 11 W/m 0,0 km/h (0 Bft) 95,65 %
19.02.2021 17:42 10,3 C 9,4 C 6,7 C 75 % 1015,7 hPa 0,0 l/m 0 min 0 min 9 W/m 3,2 km/h (1 Bft) 100,00 %
19.02.2021 17:44 10,2 C 9,4 C 6,7 C 75 % 1015,8 hPa 0,0 l/m 0 min 0 min 8 W/m 0,0 km/h (0 Bft) 100,00 %
19.02.2021 17:46 10,1 C 9,4 C 6,7 C 75 % 1015,8 hPa 0,0 l/m 0 min 0 min 7 W/m 0,0 km/h (0 Bft) 97,87 %
19.02.2021 17:48 10,1 C 9,4 C 6,7 C 76 % 1015,8 hPa 0,0 l/m 0 min 0 min 5 W/m 0,0 km/h (0 Bft) 100,00 %
19.02.2021 17:50 10,1 C 8,9 C 6,7 C 76 % 1015,9 hPa 0,0 l/m 0 min 0 min 4 W/m 0,0 km/h (0 Bft) 100,00 %
19.02.2021 17:52 10,0 C 8,9 C 6,7 C 76 % 1015,8 hPa 0,0 l/m 0 min 0 min 0 W/m 0,0 km/h (0 Bft) 100,00 %
19.02.2021 17:54 10,0 C 8,9 C 6,7 C 76 % 1015,8 hPa 0,0 l/m 0 min 0 min 0 W/m 0,0 km/h (0 Bft) 100,00 %
19.02.2021 17:56 10,0 C 8,9 C 6,1 C 76 % 1015,8 hPa 0,0 l/m 0 min 0 min 0 W/m 0,0 km/h (0 Bft) 97,87 %
19.02.2021 17:58 9,9 C 8,9 C 6,1 C 77 % 1015,8 hPa 0,0 l/m 0 min 0 min 0 W/m 3,2 km/h (1 Bft) 100,00 %
19.02.2021 18:00 9,9 C 8,9 C 6,7 C 77 % 1015,8 hPa 0,0 l/m 0 min 0 min 0 W/m 0,0 km/h (0 Bft) 95,74 %
19.02.2021 18:02 9,9 C 8,9 C 6,7 C 77 % 1015,8 hPa 0,0 l/m 0 min 0 min 0 W/m 3,2 km/h (1 Bft) 100,00 %
19.02.2021 18:04 9,9 C 8,9 C 6,1 C 77 % 1015,8 hPa 0,0 l/m 0 min 0 min 0 W/m 3,2 km/h (1 Bft) 100,00 %
19.02.2021 18:08 9,8 C 8,9 C 6,1 C 78 % 1015,8 hPa 0,0 l/m 0 min 0 min 0 W/m 3,2 km/h (1 Bft) 98,94 %
19.02.2021 18:10 9,8 C 8,9 C 6,1 C 78 % 1015,8 hPa 0,0 l/m 0 min 0 min 0 W/m 0,0 km/h (0 Bft) 100,00 %
19.02.2021 18:12 9,8 C 8,9 C 6,1 C 78 % 1015,8 hPa 0,0 l/m 0 min 0 min 0 W/m 3,2 km/h (1 Bft) 97,87 %
19.02.2021 18:14 9,7 C 8,9 C 6,1 C 78 % 1015,8 hPa 0,0 l/m 0 min 0 min 0 W/m 3,2 km/h (1 Bft) 97,87 %
19.02.2021 18:16 9,6 C 8,9 C 6,1 C 78 % 1015,8 hPa 0,0 l/m 0 min 0 min 0 W/m 0,0 km/h (0 Bft) 97,87 %
19.02.2021 18:18 9,6 C 8,9 C 6,1 C 78 % 1015,8 hPa 0,0 l/m 0 min 0 min 0 W/m 3,2 km/h (1 Bft) 100,00 %
19.02.2021 18:20 9,6 C 8,9 C 6,1 C 78 % 1015,8 hPa 0,0 l/m 0 min 0 min 0 W/m 3,2 km/h (1 Bft) 100,00 %
19.02.2021 18:22 9,6 C 8,9 C 6,1 C 78 % 1015,8 hPa 0,0 l/m 0 min 0 min 0 W/m 0,0 km/h (0 Bft) 97,87 %
19.02.2021 18:24 9,5 C 8,9 C 6,1 C 78 % 1015,8 hPa 0,0 l/m 0 min 0 min 0 W/m 3,2 km/h (1 Bft) 97,87 %
19.02.2021 18:26 9,5 C 8,9 C 6,1 C 79 % 1015,8 hPa 0,0 l/m 0 min 0 min 0 W/m 3,2 km/h (1 Bft) 100,00 %
19.02.2021 18:28 9,5 C 8,9 C 6,1 C 79 % 1015,8 hPa 0,0 l/m 0 min 0 min 0 W/m 0,0 km/h (0 Bft) 97,87 %
19.02.2021 18:30 9,5 C 8,3 C 6,1 C 79 % 1015,8 hPa 0,0 l/m 0 min 0 min 0 W/m 0,0 km/h (0 Bft) 100,00 %
19.02.2021 18:32 9,5 C 8,3 C 6,1 C 79 % 1015,8 hPa 0,0 l/m 0 min 0 min 0 W/m 0,0 km/h (0 Bft) 100,00 %
19.02.2021 18:34 9,5 C 8,3 C 6,1 C 79 % 1015,8 hPa 0,0 l/m 0 min 0 min 0 W/m 0,0 km/h (0 Bft) 97,87 %
19.02.2021 18:36 9,4 C 8,3 C 6,1 C 79 % 1015,8 hPa 0,0 l/m 0 min 0 min 0 W/m 3,2 km/h (1 Bft) 100,00 %
19.02.2021 18:38 9,4 C 8,3 C 6,1 C 79 % 1015,8 hPa 0,0 l/m 0 min 0 min 0 W/m 3,2 km/h (1 Bft) 100,00 %
19.02.2021 18:40 9,4 C 8,3 C 6,1 C 79 % 1015,8 hPa 0,0 l/m 0 min 0 min 0 W/m 0,0 km/h (0 Bft) 97,87 %
19.02.2021 18:42 9,4 C 8,3 C 5,6 C 79 % 1015,8 hPa 0,0 l/m 0 min 0 min 0 W/m 0,0 km/h (0 Bft) 100,00 %
19.02.2021 18:44 9,4 C 8,3 C 5,6 C 79 % 1015,8 hPa 0,0 l/m 0 min 0 min 0 W/m 0,0 km/h (0 Bft) 97,87 %
19.02.2021 18:46 9,3 C 8,3 C 5,6 C 80 % 1015,8 hPa 0,0 l/m 0 min 0 min 0 W/m 0,0 km/h (0 Bft) 97,87 %
19.02.2021 18:48 9,3 C 8,3 C 5,6 C 80 % 1015,8 hPa 0,0 l/m 0 min 0 min 0 W/m 3,2 km/h (1 Bft) 97,87 %
19.02.2021 18:50 9,3 C 8,3 C 5,6 C 80 % 1015,9 hPa 0,0 l/m 0 min 0 min 0 W/m 3,2 km/h (1 Bft) 97,87 %
19.02.2021 18:52 9,2 C 8,3 C 5,6 C 80 % 1015,9 hPa 0,0 l/m 0 min 0 min 0 W/m 0,0 km/h (0 Bft) 95,74 %
19.02.2021 18:54 9,2 C 8,3 C 5,6 C 80 % 1015,9 hPa 0,0 l/m 0 min 0 min 0 W/m 0,0 km/h (0 Bft) 95,65 %
19.02.2021 18:56 9,1 C 8,3 C 5,6 C 80 % 1015,9 hPa 0,0 l/m 0 min 0 min 0 W/m 0,0 km/h (0 Bft) 93,62 %
19.02.2021 18:58 9,1 C 8,3 C 5,6 C 81 % 1015,8 hPa 0,0 l/m 0 min 0 min 0 W/m 0,0 km/h (0 Bft) 95,74 %
19.02.2021 19:00 9,1 C 8,3 C 5,6 C 81 % 1015,8 hPa 0,0 l/m 0 min 0 min 0 W/m 3,2 km/h (1 Bft) 95,74 %
19.02.2021 19:02 9,1 C 8,3 C 5,6 C 81 % 1015,9 hPa 0,0 l/m 0 min 0 min 0 W/m 0,0 km/h (0 Bft) 59,57 %
19.02.2021 19:04 9,0 C 8,3 C 5,6 C 81 % 1015,9 hPa 0,0 l/m 0 min 0 min 0 W/m 3,2 km/h (1 Bft) 92,50 %
19.02.2021 19:06 9,0 C 8,3 C 5,6 C 81 % 1015,9 hPa 0,0 l/m 0 min 0 min 0 W/m 0,0 km/h (0 Bft) 93,62 %
19.02.2021 19:08 9,0 C 8,3 C 5,6 C 81 % 1015,9 hPa 0,0 l/m 0 min 0 min 0 W/m 0,0 km/h (0 Bft) 95,74 %
19.02.2021 19:10 9,0 C 8,3 C 5,6 C 81 % 1015,9 hPa 0,0 l/m 0 min 0 min 0 W/m 0,0 km/h (0 Bft) 95,74 %
19.02.2021 19:12 9,0 C 8,3 C 5,6 C 81 % 1015,9 hPa 0,0 l/m 0 min 0 min 0 W/m 0,0 km/h (0 Bft) 95,56 %
19.02.2021 19:14 9,0 C 8,3 C 5,6 C 81 % 1015,9 hPa 0,0 l/m 0 min 0 min 0 W/m 3,2 km/h (1 Bft) 95,74 %
19.02.2021 19:16 9,0 C 8,3 C 5,6 C 81 % 1015,9 hPa 0,0 l/m 0 min 0 min 0 W/m 0,0 km/h (0 Bft) 95,74 %
19.02.2021 19:18 9,0 C 8,3 C 5,6 C 81 % 1015,9 hPa 0,0 l/m 0 min 0 min 0 W/m 0,0 km/h (0 Bft) 95,65 %
19.02.2021 19:20 8,9 C 8,3 C 5,6 C 82 % 1015,9 hPa 0,0 l/m 0 min 0 min 0 W/m 0,0 km/h (0 Bft) 95,74 %
19.02.2021 19:22 8,9 C 8,3 C 5,6 C 82 % 1015,9 hPa 0,0 l/m 0 min 0 min 0 W/m 0,0 km/h (0 Bft) 93,62 %
19.02.2021 19:24 8,9 C 8,3 C 5,6 C 82 % 1015,9 hPa 0,0 l/m 0 min 0 min 0 W/m 3,2 km/h (1 Bft) 95,74 %
19.02.2021 19:26 8,9 C 7,8 C 5,6 C 82 % 1016,0 hPa 0,0 l/m 0 min 0 min 0 W/m 3,2 km/h (1 Bft) 93,62 %
19.02.2021 19:28 8,9 C 8,3 C 5,6 C 82 % 1016,0 hPa 0,0 l/m 0 min 0 min 0 W/m 0,0 km/h (0 Bft) 93,62 %
19.02.2021 19:30 8,9 C 8,3 C 5,6 C 82 % 1015,9 hPa 0,0 l/m 0 min 0 min 0 W/m 3,2 km/h (1 Bft) 95,65 %
19.02.2021 19:32 8,9 C 8,3 C 5,6 C 82 % 1015,9 hPa 0,0 l/m 0 min 0 min 0 W/m 3,2 km/h (1 Bft) 97,87 %
19.02.2021 19:34 8,9 C 7,8 C 5,6 C 82 % 1015,9 hPa 0,0 l/m 0 min 0 min 0 W/m 3,2 km/h (1 Bft) 97,87 %
19.02.2021 19:36 8,9 C 7,8 C 5,6 C 82 % 1015,9 hPa 0,0 l/m 0 min 0 min 0 W/m 0,0 km/h (0 Bft) 97,87 %
19.02.2021 19:38 8,8 C 7,8 C 5,6 C 82 % 1015,9 hPa 0,0 l/m 0 min 0 min 0 W/m 0,0 km/h (0 Bft) 96,55 %
19.02.2021 19:40 8,8 C 7,8 C 5,6 C 82 % 1015,9 hPa 0,0 l/m 0 min 0 min 0 W/m 0,0 km/h (0 Bft) 94,44 %
19.02.2021 19:42 8,8 C 7,8 C 5,6 C 82 % 1015,9 hPa 0,0 l/m 0 min 0 min 0 W/m 3,2 km/h (1 Bft) 97,87 %
19.02.2021 19:44 8,8 C 7,8 C 5,6 C 82 % 1015,9 hPa 0,0 l/m 0 min 0 min 0 W/m 0,0 km/h (0 Bft) 97,87 %
19.02.2021 19:46 8,8 C 7,8 C 5,6 C 82 % 1015,9 hPa 0,0 l/m 0 min 0 min 0 W/m 0,0 km/h (0 Bft) 97,87 %
19.02.2021 19:48 8,8 C 7,8 C 5,6 C 82 % 1015,9 hPa 0,0 l/m 0 min 0 min 0 W/m 3,2 km/h (1 Bft) 97,87 %
19.02.2021 19:50 8,8 C 7,8 C 5,6 C 83 % 1015,9 hPa 0,0 l/m 0 min 0 min 0 W/m 3,2 km/h (1 Bft) 97,87 %
19.02.2021 19:52 8,7 C 7,8 C 5,6 C 83 % 1015,9 hPa 0,0 l/m 0 min 0 min 0 W/m 0,0 km/h (0 Bft) 95,65 %
19.02.2021 19:54 8,7 C 7,8 C 5,6 C 83 % 1015,9 hPa 0,0 l/m 0 min 0 min 0 W/m 0,0 km/h (0 Bft) 95,74 %
19.02.2021 19:56 8,7 C 7,8 C 5,6 C 83 % 1015,9 hPa 0,0 l/m 0 min 0 min 0 W/m 0,0 km/h (0 Bft) 91,49 %
19.02.2021 19:58 8,7 C 7,8 C 5,6 C 83 % 1015,9 hPa 0,0 l/m 0 min 0 min 0 W/m 3,2 km/h (1 Bft) 93,62 %
19.02.2021 20:00 8,7 C 7,8 C 5,6 C 83 % 1015,9 hPa 0,0 l/m 0 min 0 min 0 W/m 3,2 km/h (1 Bft) 95,74 %
19.02.2021 20:02 8,6 C 7,8 C 5,6 C 83 % 1015,9 hPa 0,0 l/m 0 min 0 min 0 W/m 0,0 km/h (0 Bft) 93,62 %
19.02.2021 20:04 8,6 C 7,8 C 5,6 C 83 % 1015,9 hPa 0,0 l/m 0 min 0 min 0 W/m 0,0 km/h (0 Bft) 95,65 %
19.02.2021 20:06 8,6 C 7,8 C 5,6 C 83 % 1015,9 hPa 0,0 l/m 0 min 0 min 0 W/m 0,0 km/h (0 Bft) 95,74 %
19.02.2021 20:08 8,6 C 7,8 C 5,6 C 83 % 1015,9 hPa 0,0 l/m 0 min 0 min 0 W/m 0,0 km/h (0 Bft) 97,87 %
19.02.2021 20:10 8,6 C 7,8 C 5,6 C 83 % 1015,9 hPa 0,0 l/m 0 min 0 min 0 W/m 0,0 km/h (0 Bft) 97,87 %
19.02.2021 20:12 8,6 C 7,8 C 5,6 C 83 % 1015,9 hPa 0,0 l/m 0 min 0 min 0 W/m 0,0 km/h (0 Bft) 97,87 %
19.02.2021 20:14 8,6 C 7,8 C 5,6 C 83 % 1015,9 hPa 0,0 l/m 0 min 0 min 0 W/m 3,2 km/h (1 Bft) 98,00 %
19.02.2021 20:16 8,6 C 7,8 C 5,6 C 83 % 1015,8 hPa 0,0 l/m 0 min 0 min 0 W/m 0,0 km/h (0 Bft) 95,74 %
19.02.2021 20:18 8,6 C 7,8 C 5,6 C 84 % 1015,8 hPa 0,0 l/m 0 min 0 min 0 W/m 0,0 km/h (0 Bft) 95,74 %
19.02.2021 20:20 8,6 C 7,8 C 5,6 C 84 % 1015,8 hPa 0,0 l/m 0 min 0 min 0 W/m 0,0 km/h (0 Bft) 97,87 %
19.02.2021 20:22 8,6 C 7,8 C 5,6 C 84 % 1015,8 hPa 0,0 l/m 0 min 0 min 0 W/m 3,2 km/h (1 Bft) 97,83 %
19.02.2021 20:24 8,6 C 7,8 C 5,6 C 84 % 1015,8 hPa 0,0 l/m 0 min 0 min 0 W/m 0,0 km/h (0 Bft) 95,74 %
19.02.2021 20:26 8,6 C 7,8 C 5,6 C 84 % 1015,9 hPa 0,0 l/m 0 min 0 min 0 W/m 0,0 km/h (0 Bft) 95,74 %
19.02.2021 20:28 8,6 C 7,8 C 5,6 C 84 % 1015,9 hPa 0,0 l/m 0 min 0 min 0 W/m 3,2 km/h (1 Bft) 95,74 %
19.02.2021 20:30 8,6 C 7,8 C 5,6 C 84 % 1015,8 hPa 0,0 l/m 0 min 0 min 0 W/m 0,0 km/h (0 Bft) 100,00 %
19.02.2021 20:32 8,6 C 7,8 C 5,6 C 84 % 1015,8 hPa 0,0 l/m 0 min 0 min 0 W/m 0,0 km/h (0 Bft) 93,75 %
19.02.2021 20:34 8,6 C 7,8 C 5,6 C 84 % 1015,8 hPa 0,0 l/m 0 min 0 min 0 W/m 0,0 km/h (0 Bft) 95,65 %
19.02.2021 20:36 8,6 C 7,8 C 5,6 C 84 % 1015,8 hPa 0,0 l/m 0 min 0 min 0 W/m 0,0 km/h (0 Bft) 95,74 %
19.02.2021 20:38 8,6 C 7,8 C 5,6 C 84 % 1015,7 hPa 0,0 l/m 0 min 0 min 0 W/m 3,2 km/h (1 Bft) 97,87 %
19.02.2021 20:40 8,6 C 7,8 C 5,6 C 84 % 1015,8 hPa 0,0 l/m 0 min 0 min 0 W/m 0,0 km/h (0 Bft) 97,87 %
19.02.2021 20:42 8,5 C 7,8 C 5,6 C 84 % 1015,8 hPa 0,0 l/m 0 min 0 min 0 W/m 3,2 km/h (1 Bft) 97,87 %
19.02.2021 20:44 8,6 C 7,8 C 5,6 C 84 % 1015,8 hPa 0,0 l/m 0 min 0 min 0 W/m 0,0 km/h (0 Bft) 100,00 %
19.02.2021 20:46 8,5 C 7,8 C 5,6 C 84 % 1015,8 hPa 0,0 l/m 0 min 0 min 0 W/m 0,0 km/h (0 Bft) 97,83 %
19.02.2021 20:48 8,5 C 7,8 C 5,6 C 84 % 1015,8 hPa 0,0 l/m 0 min 0 min 0 W/m 0,0 km/h (0 Bft) 100,00 %
19.02.2021 20:50 8,5 C 7,8 C 5,6 C 84 % 1015,8 hPa 0,0 l/m 0 min 0 min 0 W/m 0,0 km/h (0 Bft) 100,00 %
19.02.2021 20:52 8,5 C 7,8 C 5,6 C 84 % 1015,8 hPa 0,0 l/m 0 min 0 min 0 W/m 3,2 km/h (1 Bft) 100,00 %
19.02.2021 20:54 8,5 C 7,8 C 5,6 C 85 % 1015,8 hPa 0,0 l/m 0 min 0 min 0 W/m 0,0 km/h (0 Bft) 97,87 %
19.02.2021 20:56 8,5 C 7,8 C 5,6 C 85 % 1015,8 hPa 0,0 l/m 0 min 0 min 0 W/m 0,0 km/h (0 Bft) 100,00 %
19.02.2021 20:58 8,5 C 7,8 C 5,6 C 85 % 1015,8 hPa 0,0 l/m 0 min 0 min 0 W/m 0,0 km/h (0 Bft) 100,00 %
19.02.2021 21:00 8,5 C 7,8 C 5,6 C 84 % 1015,8 hPa 0,0 l/m 0 min 0 min 0 W/m 3,2 km/h (1 Bft) 100,00 %
19.02.2021 21:02 8,5 C 7,8 C 5,6 C 84 % 1015,8 hPa 0,0 l/m 0 min 0 min 0 W/m 3,2 km/h (1 Bft) 97,87 %
19.02.2021 21:04 8,5 C 7,8 C 5,6 C 85 % 1015,8 hPa 0,0 l/m 0 min 0 min 0 W/m 0,0 km/h (0 Bft) 100,00 %
19.02.2021 21:06 8,5 C 7,8 C 5,6 C 85 % 1015,8 hPa 0,0 l/m 0 min 0 min 0 W/m 0,0 km/h (0 Bft) 100,00 %
19.02.2021 21:08 8,5 C 7,8 C 5,6 C 85 % 1015,8 hPa 0,0 l/m 0 min 0 min 0 W/m 0,0 km/h (0 Bft) 100,00 %
19.02.2021 21:10 8,5 C 7,8 C 5,6 C 85 % 1015,8 hPa 0,0 l/m 0 min 0 min 0 W/m 0,0 km/h (0 Bft) 97,83 %
19.02.2021 21:12 8,5 C 7,8 C 5,6 C 85 % 1015,8 hPa 0,0 l/m 0 min 0 min 0 W/m 0,0 km/h (0 Bft) 100,00 %
19.02.2021 21:14 8,5 C 7,8 C 5,6 C 85 % 1015,8 hPa 0,0 l/m 0 min 0 min 0 W/m 0,0 km/h (0 Bft) 100,00 %
19.02.2021 21:16 8,5 C 7,8 C 5,6 C 85 % 1015,8 hPa 0,0 l/m 0 min 0 min 0 W/m 0,0 km/h (0 Bft) 100,00 %
19.02.2021 21:18 8,5 C 7,8 C 5,6 C 85 % 1015,8 hPa 0,0 l/m 0 min 0 min 0 W/m 0,0 km/h (0 Bft) 100,00 %
19.02.2021 21:20 8,5 C 7,8 C 5,6 C 85 % 1015,8 hPa 0,0 l/m 0 min 0 min 0 W/m 0,0 km/h (0 Bft) 97,83 %
19.02.2021 21:22 8,5 C 7,8 C 5,6 C 85 % 1015,8 hPa 0,0 l/m 0 min 0 min 0 W/m 0,0 km/h (0 Bft) 97,87 %
19.02.2021 21:24 8,5 C 7,8 C 5,6 C 85 % 1015,9 hPa 0,0 l/m 0 min 0 min 0 W/m 0,0 km/h (0 Bft) 97,87 %
19.02.2021 21:26 8,5 C 7,8 C 5,6 C 85 % 1015,8 hPa 0,0 l/m 0 min 0 min 0 W/m 0,0 km/h (0 Bft) 97,87 %
19.02.2021 21:28 8,4 C 7,8 C 5,6 C 85 % 1015,8 hPa 0,0 l/m 0 min 0 min 0 W/m 0,0 km/h (0 Bft) 97,87 %
19.02.2021 21:30 8,4 C 7,8 C 5,6 C 85 % 1015,9 hPa 0,0 l/m 0 min 0 min 0 W/m 0,0 km/h (0 Bft) 97,87 %
19.02.2021 21:32 8,4 C 7,8 C 5,6 C 85 % 1015,9 hPa 0,0 l/m 0 min 0 min 0 W/m 3,2 km/h (1 Bft) 97,83 %
19.02.2021 21:34 8,4 C 7,8 C 5,6 C 85 % 1015,8 hPa 0,0 l/m 0 min 0 min 0 W/m 0,0 km/h (0 Bft) 97,87 %
19.02.2021 21:36 8,4 C 7,8 C 5,6 C 85 % 1015,8 hPa 0,0 l/m 0 min 0 min 0 W/m 3,2 km/h (1 Bft) 97,87 %
19.02.2021 21:38 8,4 C 7,8 C 5,6 C 85 % 1015,8 hPa 0,0 l/m 0 min 0 min 0 W/m 3,2 km/h (1 Bft) 97,87 %
19.02.2021 21:40 8,4 C 7,8 C 5,6 C 85 % 1015,8 hPa 0,0 l/m 0 min 0 min 0 W/m 0,0 km/h (0 Bft) 95,74 %
19.02.2021 21:42 8,4 C 7,8 C 5,6 C 85 % 1015,9 hPa 0,0 l/m 0 min 0 min 0 W/m 0,0 km/h (0 Bft) 95,74 %
19.02.2021 21:44 8,4 C 7,8 C 5,6 C 85 % 1015,8 hPa 0,0 l/m 0 min 0 min 0 W/m 3,2 km/h (1 Bft) 97,83 %
19.02.2021 21:46 8,4 C 7,8 C 5,6 C 85 % 1015,8 hPa 0,0 l/m 0 min 0 min 0 W/m 3,2 km/h (1 Bft) 97,87 %
19.02.2021 21:48 8,4 C 7,8 C 5,6 C 85 % 1015,8 hPa 0,0 l/m 0 min 0 min 0 W/m 3,2 km/h (1 Bft) 95,74 %
19.02.2021 21:50 8,4 C 7,8 C 5,6 C 85 % 1015,8 hPa 0,0 l/m 0 min 0 min 0 W/m 0,0 km/h (0 Bft) 95,74 %
19.02.2021 21:52 8,3 C 7,8 C 5,6 C 85 % 1015,8 hPa 0,0 l/m 0 min 0 min 0 W/m 3,2 km/h (1 Bft) 97,87 %
19.02.2021 21:54 8,3 C 7,8 C 5,6 C 85 % 1015,8 hPa 0,0 l/m 0 min 0 min 0 W/m 0,0 km/h (0 Bft) 97,87 %
19.02.2021 21:56 8,3 C 7,8 C 5,6 C 85 % 1015,9 hPa 0,0 l/m 0 min 0 min 0 W/m 3,2 km/h (1 Bft) 97,83 %
19.02.2021 21:58 8,3 C 7,8 C 5,6 C 85 % 1015,8 hPa 0,0 l/m 0 min 0 min 0 W/m 0,0 km/h (0 Bft) 97,87 %
19.02.2021 22:00 8,4 C 7,8 C 6,1 C 85 % 1015,8 hPa 0,0 l/m 0 min 0 min 0 W/m 3,2 km/h (1 Bft) 97,87 %
19.02.2021 22:02 8,4 C 7,8 C 6,1 C 85 % 1015,8 hPa 0,0 l/m 0 min 0 min 0 W/m 0,0 km/h (0 Bft) 96,23 %
19.02.2021 22:04 8,4 C 7,8 C 5,6 C 85 % 1015,9 hPa 0,0 l/m 0 min 0 min 0 W/m 3,2 km/h (1 Bft) 100,00 %
19.02.2021 22:06 8,4 C 7,8 C 5,6 C 85 % 1015,9 hPa 0,0 l/m 0 min 0 min 0 W/m 3,2 km/h (1 Bft) 100,00 %
19.02.2021 22:08 8,4 C 7,8 C 5,6 C 84 % 1015,9 hPa 0,0 l/m 0 min 0 min 0 W/m 0,0 km/h (0 Bft) 100,00 %
19.02.2021 22:10 8,4 C 7,8 C 5,6 C 84 % 1015,9 hPa 0,0 l/m 0 min 0 min 0 W/m 3,2 km/h (1 Bft) 100,00 %
19.02.2021 22:12 8,4 C 7,8 C 5,6 C 84 % 1015,8 hPa 0,0 l/m 0 min 0 min 0 W/m 0,0 km/h (0 Bft) 100,00 %
19.02.2021 22:14 8,4 C 7,8 C 5,6 C 85 % 1015,8 hPa 0,0 l/m 0 min 0 min 0 W/m 3,2 km/h (1 Bft) 100,00 %
19.02.2021 22:16 8,4 C 7,8 C 5,6 C 85 % 1015,8 hPa 0,0 l/m 0 min 0 min 0 W/m 0,0 km/h (0 Bft) 100,00 %
19.02.2021 22:18 8,4 C 7,8 C 6,1 C 85 % 1015,8 hPa 0,0 l/m 0 min 0 min 0 W/m 3,2 km/h (1 Bft) 100,00 %
19.02.2021 22:20 8,4 C 7,8 C 5,6 C 85 % 1015,7 hPa 0,0 l/m 0 min 0 min 0 W/m 0,0 km/h (0 Bft) 100,00 %
19.02.2021 22:22 8,4 C 7,8 C 5,6 C 85 % 1015,7 hPa 0,0 l/m 0 min 0 min 0 W/m 0,0 km/h (0 Bft) 97,87 %
19.02.2021 22:24 8,4 C 7,8 C 6,1 C 85 % 1015,7 hPa 0,0 l/m 0 min 0 min 0 W/m 3,2 km/h (1 Bft) 100,00 %
19.02.2021 22:26 8,4 C 7,8 C 5,6 C 85 % 1015,7 hPa 0,0 l/m 0 min 0 min 0 W/m 3,2 km/h (1 Bft) 100,00 %
19.02.2021 22:28 8,4 C 7,8 C 5,6 C 85 % 1015,7 hPa 0,0 l/m 0 min 0 min 0 W/m 3,2 km/h (1 Bft) 100,00 %
19.02.2021 22:30 8,4 C 7,8 C 5,6 C 85 % 1015,7 hPa 0,0 l/m 0 min 0 min 0 W/m 3,2 km/h (1 Bft) 100,00 %
19.02.2021 22:32 8,4 C 7,8 C 5,6 C 85 % 1015,7 hPa 0,0 l/m 0 min 0 min 0 W/m 0,0 km/h (0 Bft) 100,00 %
19.02.2021 22:34 8,3 C 7,8 C 5,6 C 85 % 1015,7 hPa 0,0 l/m 0 min 0 min 0 W/m 3,2 km/h (1 Bft) 100,00 %
19.02.2021 22:36 8,3 C 7,8 C 5,6 C 85 % 1015,7 hPa 0,0 l/m 0 min 0 min 0 W/m 3,2 km/h (1 Bft) 97,83 %
19.02.2021 22:38 8,3 C 7,8 C 5,6 C 85 % 1015,7 hPa 0,0 l/m 0 min 0 min 0 W/m 0,0 km/h (0 Bft) 100,00 %
19.02.2021 22:40 8,3 C 7,8 C 5,6 C 85 % 1015,6 hPa 0,0 l/m 0 min 0 min 0 W/m 0,0 km/h (0 Bft) 100,00 %
19.02.2021 22:42 8,3 C 7,8 C 5,6 C 85 % 1015,6 hPa 0,0 l/m 0 min 0 min 0 W/m 0,0 km/h (0 Bft) 100,00 %
19.02.2021 22:44 8,3 C 7,8 C 6,1 C 85 % 1015,7 hPa 0,0 l/m 0 min 0 min 0 W/m 3,2 km/h (1 Bft) 97,87 %
19.02.2021 22:46 8,3 C 7,8 C 6,1 C 85 % 1015,6 hPa 0,0 l/m 0 min 0 min 0 W/m 3,2 km/h (1 Bft) 97,87 %
19.02.2021 22:48 8,3 C 7,8 C 5,6 C 85 % 1015,7 hPa 0,0 l/m 0 min 0 min 0 W/m 0,0 km/h (0 Bft) 97,83 %
19.02.2021 22:50 8,3 C 7,8 C 6,1 C 85 % 1015,6 hPa 0,0 l/m 0 min 0 min 0 W/m 3,2 km/h (1 Bft) 95,74 %
19.02.2021 22:52 8,3 C 7,8 C 6,1 C 85 % 1015,6 hPa 0,0 l/m 0 min 0 min 0 W/m 3,2 km/h (1 Bft) 95,74 %
19.02.2021 22:54 8,3 C 7,8 C 6,1 C 85 % 1015,6 hPa 0,0 l/m 0 min 0 min 0 W/m 3,2 km/h (1 Bft) 97,87 %
19.02.2021 22:56 8,3 C 7,8 C 6,1 C 85 % 1015,6 hPa 0,0 l/m 0 min 0 min 0 W/m 0,0 km/h (0 Bft) 97,87 %
19.02.2021 22:58 8,3 C 7,8 C 6,1 C 85 % 1015,6 hPa 0,0 l/m 0 min 0 min 0 W/m 0,0 km/h (0 Bft) 97,83 %
19.02.2021 23:00 8,3 C 7,8 C 6,1 C 85 % 1015,6 hPa 0,0 l/m 0 min 0 min 0 W/m 0,0 km/h (0 Bft) 97,92 %
19.02.2021 23:02 8,3 C 7,8 C 6,1 C 85 % 1015,6 hPa 0,0 l/m 0 min 0 min 0 W/m 0,0 km/h (0 Bft) 97,83 %
19.02.2021 23:04 8,3 C 7,8 C 6,1 C 85 % 1015,5 hPa 0,0 l/m 0 min 0 min 0 W/m 0,0 km/h (0 Bft) 97,87 %
19.02.2021 23:06 8,3 C 7,8 C 5,6 C 85 % 1015,5 hPa 0,0 l/m 0 min 0 min 0 W/m 0,0 km/h (0 Bft) 97,87 %
19.02.2021 23:08 8,3 C 7,8 C 5,6 C 85 % 1015,5 hPa 0,0 l/m 0 min 0 min 0 W/m 3,2 km/h (1 Bft) 97,87 %
19.02.2021 23:10 8,3 C 7,8 C 5,6 C 85 % 1015,5 hPa 0,0 l/m 0 min 0 min 0 W/m 0,0 km/h (0 Bft) 93,48 %
19.02.2021 23:12 8,3 C 7,8 C 5,6 C 85 % 1015,5 hPa 0,0 l/m 0 min 0 min 0 W/m 0,0 km/h (0 Bft) 97,87 %
19.02.2021 23:14 8,3 C 7,8 C 5,6 C 85 % 1015,5 hPa 0,0 l/m 0 min 0 min 0 W/m 3,2 km/h (1 Bft) 93,62 %
19.02.2021 23:16 8,3 C 7,8 C 5,6 C 85 % 1015,5 hPa 0,0 l/m 0 min 0 min 0 W/m 0,0 km/h (0 Bft) 91,49 %
19.02.2021 23:18 8,3 C 7,2 C 5,6 C 85 % 1015,5 hPa 0,0 l/m 0 min 0 min 0 W/m 3,2 km/h (1 Bft) 97,37 %
19.02.2021 23:20 8,3 C 7,2 C 5,6 C 85 % 1015,5 hPa 0,0 l/m 0 min 0 min 0 W/m 0,0 km/h (0 Bft) 95,74 %
19.02.2021 23:22 8,3 C 7,2 C 5,6 C 85 % 1015,5 hPa 0,0 l/m 0 min 0 min 0 W/m 0,0 km/h (0 Bft) 95,74 %
19.02.2021 23:24 8,2 C 7,2 C 5,6 C 85 % 1015,5 hPa 0,0 l/m 0 min 0 min 0 W/m 3,2 km/h (1 Bft) 93,62 %
19.02.2021 23:26 8,2 C 7,2 C 5,6 C 85 % 1015,5 hPa 0,0 l/m 0 min 0 min 0 W/m 0,0 km/h (0 Bft) 95,65 %
19.02.2021 23:28 8,1 C 7,2 C 5,6 C 86 % 1015,5 hPa 0,0 l/m 0 min 0 min 0 W/m 0,0 km/h (0 Bft) 95,74 %
19.02.2021 23:30 8,1 C 7,2 C 5,6 C 86 % 1015,6 hPa 0,0 l/m 0 min 0 min 0 W/m 0,0 km/h (0 Bft) 93,62 %
19.02.2021 23:32 8,1 C 7,2 C 5,6 C 86 % 1015,6 hPa 0,0 l/m 0 min 0 min 0 W/m 0,0 km/h (0 Bft) 97,92 %
19.02.2021 23:34 8,1 C 7,2 C 5,6 C 86 % 1015,5 hPa 0,0 l/m 0 min 0 min 0 W/m 0,0 km/h (0 Bft) 95,74 %
19.02.2021 23:36 8,0 C 7,2 C 5,6 C 86 % 1015,5 hPa 0,0 l/m 0 min 0 min 0 W/m 0,0 km/h (0 Bft) 95,65 %
19.02.2021 23:38 8,0 C 7,2 C 5,0 C 86 % 1015,5 hPa 0,0 l/m 0 min 0 min 0 W/m 0,0 km/h (0 Bft) 95,74 %
19.02.2021 23:40 8,0 C 7,2 C 5,0 C 86 % 1015,5 hPa 0,0 l/m 0 min 0 min 0 W/m 0,0 km/h (0 Bft) 65,96 %
19.02.2021 23:42 8,0 C 7,2 C 5,0 C 86 % 1015,5 hPa 0,0 l/m 0 min 0 min 0 W/m 0,0 km/h (0 Bft) 84,62 %
19.02.2021 23:44 8,0 C 7,2 C 5,0 C 86 % 1015,5 hPa 0,0 l/m 0 min 0 min 0 W/m 0,0 km/h (0 Bft) 97,87 %
19.02.2021 23:46 7,9 C 7,2 C 5,0 C 86 % 1015,6 hPa 0,0 l/m 0 min 0 min 0 W/m 0,0 km/h (0 Bft) 97,87 %
19.02.2021 23:48 7,9 C 7,2 C 5,0 C 86 % 1015,5 hPa 0,0 l/m 0 min 0 min 0 W/m 3,2 km/h (1 Bft) 95,65 %
19.02.2021 23:50 7,9 C 7,2 C 5,0 C 86 % 1015,5 hPa 0,0 l/m 0 min 0 min 0 W/m 0,0 km/h (0 Bft) 97,87 %
19.02.2021 23:52 7,9 C 7,2 C 5,0 C 86 % 1015,5 hPa 0,0 l/m 0 min 0 min 0 W/m 0,0 km/h (0 Bft) 97,87 %
19.02.2021 23:54 7,9 C 7,2 C 5,0 C 86 % 1015,5 hPa 0,0 l/m 0 min 0 min 0 W/m 0,0 km/h (0 Bft) 97,87 %
19.02.2021 23:56 7,8 C 7,2 C 5,0 C 86 % 1015,5 hPa 0,0 l/m 0 min 0 min 0 W/m 0,0 km/h (0 Bft) 93,62 %
19.02.2021 23:58 7,8 C 7,2 C 5,0 C 86 % 1015,5 hPa 0,0 l/m 0 min 0 min 0 W/m 3,2 km/h (1 Bft) 95,74 %
_ Min-Zeit 08:20 07:25 07:25 14:00 00:00 - - - - 00:00 00:02
Minimum _ 2,8 C 2,2 C 2,3 C 69 % 1012,8 hPa - - - - 0,0 km/h (0 Bft) 5,56 %
_ Max-Zeit 13:16 12:32 13:04 08:56 09:44 00:00 12:08 00:00 13:08 14:24 00:56
Maximum _ 12,0 C 16,1 C 17,8 C 96 % 1018,1 hPa 0,0 l/m 4 min 0 min 490 W/m 29,0 km/h
S-SO (5 Bft)
100,00 %
Durchschnitt _ 7,4 C 7,4 C 6,3 C 86 % 1016,2 hPa #0,0 l/m #5:04 h #0 min. 178 W/m 1,1 km/h (1 Bft) 96,75 %
© 2021 W. Hausmann